Data Archive--May, 2006

Date Time Heat Index Current Temp Wind Chill High Temp Low Temp Humidity Dew Point Wind Speed Gust Wind Direction Rain Barometer
05/01/2006 12:00 a 44.2 44.2 44.2 44.4 44.0 72 35.8 0.0 0.0 --- 0.00 30.252
05/01/2006 12:10 a 43.7 43.7 43.7 44.0 43.5 74 36.0 0.0 0.0 --- 0.00 30.247
05/01/2006 12:20 a 43.3 43.3 43.3 43.5 43.1 75 35.9 0.0 0.0 --- 0.00 30.250
05/01/2006 12:30 a 43.0 43.0 43.0 43.1 42.9 76 36.0 0.0 0.0 --- 0.00 30.249
05/01/2006 12:40 a 42.7 42.7 42.7 42.9 42.5 77 36.0 0.0 0.0 --- 0.00 30.246
05/01/2006 12:50 a 42.4 42.4 42.4 42.6 42.3 78 36.0 0.0 0.0 --- 0.00 30.241
05/01/2006 1:00 a 42.1 42.1 42.1 42.3 41.9 79 36.1 0.0 0.0 --- 0.00 30.240
05/01/2006 1:10 a 41.8 41.8 41.8 41.9 41.6 80 36.1 0.0 0.0 --- 0.00 30.243
05/01/2006 1:20 a 41.6 41.6 41.6 41.7 41.5 80 35.9 0.0 0.0 --- 0.00 30.242
05/01/2006 1:30 a 41.3 41.3 41.3 41.4 41.1 81 35.9 0.0 0.0 --- 0.00 30.242
05/01/2006 1:40 a 41.0 41.0 41.0 41.1 40.9 81 35.6 0.0 0.0 --- 0.00 30.240
05/01/2006 1:50 a 40.8 40.8 40.8 40.9 40.7 81 35.4 0.0 0.0 --- 0.00 30.236
05/01/2006 2:00 a 40.5 40.5 40.5 40.7 40.4 82 35.4 0.0 0.0 --- 0.00 30.233
05/01/2006 2:10 a 40.4 40.4 40.4 40.4 40.3 82 35.3 0.0 0.0 --- 0.00 30.229
05/01/2006 2:20 a 40.4 40.4 40.4 40.4 40.3 83 35.7 0.0 0.0 --- 0.00 30.232
05/01/2006 2:30 a 40.3 40.3 40.3 40.4 40.3 82 35.3 0.0 0.0 --- 0.00 30.228
05/01/2006 2:40 a 40.3 40.3 40.3 40.3 40.2 82 35.3 0.0 0.0 --- 0.00 30.225
05/01/2006 2:50 a 40.1 40.1 40.1 40.2 40.0 83 35.4 0.0 0.0 --- 0.00 30.222
05/01/2006 3:00 a 40.0 40.0 40.0 40.1 39.9 83 35.3 0.0 0.0 --- 0.00 30.219
05/01/2006 3:10 a 40.0 40.0 40.0 40.1 39.9 82 35.0 0.0 0.0 --- 0.00 30.216
05/01/2006 3:20 a 40.3 40.3 40.3 40.6 40.1 80 34.6 0.0 0.0 --- 0.00 30.211
05/01/2006 3:30 a 41.3 41.3 41.3 42.0 40.6 72 33.0 0.0 0.0 --- 0.00 30.215
05/01/2006 3:40 a 42.8 42.8 42.8 43.2 42.0 71 34.1 0.0 0.0 --- 0.00 30.216
05/01/2006 3:50 a 43.3 43.3 43.3 43.6 43.1 70 34.2 0.0 0.0 --- 0.00 30.215
05/01/2006 4:00 a 43.8 43.8 43.8 43.9 43.5 69 34.3 0.0 0.0 --- 0.00 30.217
05/01/2006 4:10 a 43.7 43.7 43.7 43.9 43.6 70 34.6 0.0 0.0 --- 0.00 30.221
05/01/2006 4:20 a 43.5 43.5 43.5 43.6 43.4 71 34.7 0.0 0.0 --- 0.00 30.222
05/01/2006 4:30 a 43.2 43.2 43.2 43.4 43.1 66 32.6 0.0 0.0 --- 0.00 30.225
05/01/2006 4:40 a 43.2 43.2 43.2 43.3 43.1 64 31.9 0.0 0.0 --- 0.00 30.225
05/01/2006 4:50 a 43.5 43.5 43.5 43.7 43.3 61 31.0 0.0 0.0 --- 0.00 30.226
05/01/2006 5:00 a 44.1 44.1 44.1 44.6 43.7 56 29.4 0.0 0.0 --- 0.00 30.223
05/01/2006 5:10 a 45.0 45.0 45.0 45.4 44.6 54 29.4 0.0 0.0 --- 0.00 30.223
05/01/2006 5:20 a 45.8 45.8 45.8 46.2 45.4 51 28.7 0.0 1.0 NW 0.00 30.223
05/01/2006 5:30 a 46.6 46.6 46.6 46.8 46.2 51 29.5 0.0 0.0 --- 0.00 30.224
05/01/2006 5:40 a 47.0 47.0 47.0 47.2 46.8 49 28.8 0.0 0.0 --- 0.00 30.223
05/01/2006 5:50 a 47.2 47.2 47.2 47.3 47.1 48 28.5 0.0 0.0 --- 0.00 30.221
05/01/2006 6:00 a 47.4 47.4 47.4 47.5 47.3 47 28.2 0.0 0.0 --- 0.00 30.224
05/01/2006 6:10 a 47.5 47.5 47.5 47.5 47.4 48 28.8 0.0 0.0 --- 0.00 30.227
05/01/2006 6:20 a 47.6 47.6 47.6 47.7 47.5 47 28.4 0.0 0.0 --- 0.00 30.227
05/01/2006 6:30 a 47.8 47.8 47.8 48.1 47.6 45 27.5 0.0 0.0 --- 0.00 30.232
05/01/2006 6:40 a 48.4 48.4 48.4 48.7 48.0 42 26.4 0.0 1.0 NW 0.00 30.234
05/01/2006 6:50 a 49.1 49.1 49.1 49.5 48.7 41 26.4 0.0 1.0 NW 0.00 30.230
05/01/2006 7:00 a 49.9 49.9 49.9 50.1 49.5 41 27.2 0.0 1.0 NW 0.00 30.230
05/01/2006 7:10 a 50.4 50.4 50.4 50.8 50.1 38 25.8 0.0 4.0 WSW 0.00 30.229
05/01/2006 7:20 a 51.1 51.1 51.1 51.5 50.7 36 25.1 0.0 3.0 WSW 0.00 30.231
05/01/2006 7:30 a 51.9 51.9 51.9 52.3 51.5 35 25.1 0.0 2.0 WSW 0.00 30.227
05/01/2006 7:40 a 52.6 52.6 52.6 52.9 52.3 36 26.4 1.0 4.0 WSW 0.00 30.224
05/01/2006 7:50 a 53.1 53.1 53.1 53.3 52.9 35 26.2 0.0 2.0 WSW 0.00 30.225
05/01/2006 8:00 a 53.6 53.6 53.6 53.9 53.3 34 25.9 1.0 3.0 SW 0.00 30.225
05/01/2006 8:10 a 54.1 54.1 54.1 54.3 53.9 34 26.4 0.0 2.0 SSW 0.00 30.223
05/01/2006 8:20 a 54.6 54.6 54.6 54.8 54.3 33 26.1 1.0 3.0 SSW 0.00 30.219
05/01/2006 8:30 a 55.0 55.0 55.0 55.3 54.8 32 25.7 1.0 5.0 SE 0.00 30.223
05/01/2006 8:40 a 55.6 55.6 55.6 55.9 55.3 32 26.2 0.0 4.0 SW 0.00 30.226
05/01/2006 8:50 a 56.3 56.3 56.3 56.7 55.9 32 26.8 1.0 3.0 SW 0.00 30.225
05/01/2006 9:00 a 57.3 57.3 57.3 57.9 56.8 30 26.2 1.0 4.0 SW 0.00 30.220
05/01/2006 9:10 a 58.5 58.5 58.5 58.8 57.9 27 24.7 1.0 4.0 SW 0.00 30.224
05/01/2006 9:20 a 59.2 59.2 59.2 59.5 58.8 27 25.3 1.0 4.0 SW 0.00 30.224
05/01/2006 9:30 a 59.8 59.8 59.8 60.0 59.5 24 23.0 1.0 5.0 SW 0.00 30.224
05/01/2006 9:40 a 60.3 60.3 60.3 60.6 60.0 27 26.2 1.0 4.0 WNW 0.00 30.224
05/01/2006 9:50 a 61.0 61.0 61.0 61.3 60.6 24 24.0 1.0 5.0 WNW 0.00 30.221
05/01/2006 10:00 a 61.6 61.6 61.6 61.8 61.3 24 24.5 1.0 4.0 WNW 0.00 30.217
05/01/2006 10:10 a 61.9 61.9 61.9 62.0 61.8 24 24.7 2.0 4.0 W 0.00 30.215
05/01/2006 10:20 a 62.1 62.1 62.1 62.3 62.0 23 23.9 1.0 4.0 WSW 0.00 30.215
05/01/2006 10:30 a 62.5 62.5 62.5 62.8 62.3 24 25.2 1.0 4.0 WNW 0.00 30.212
05/01/2006 10:40 a 62.9 62.9 62.9 63.2 62.8 24 25.6 1.0 4.0 W 0.00 30.205
05/01/2006 10:50 a 63.4 63.4 63.4 63.6 63.2 27 28.9 1.0 3.0 WSW 0.00 30.206
05/01/2006 11:00 a 63.8 63.8 63.8 64.0 63.6 26 28.3 2.0 5.0 W 0.00 30.206
05/01/2006 11:10 a 63.9 63.9 63.9 64.0 63.8 27 29.3 1.0 5.0 WNW 0.00 30.199
05/01/2006 11:20 a 64.2 64.2 64.2 64.3 64.0 27 29.5 2.0 5.0 SW 0.00 30.203
05/01/2006 11:30 a 64.4 64.4 64.4 64.7 64.2 27 29.7 2.0 5.0 WNW 0.00 30.199
05/01/2006 11:40 a 65.0 65.0 65.0 65.3 64.7 27 30.2 1.0 4.0 W 0.00 30.195
05/01/2006 11:50 a 65.7 65.7 65.7 65.9 65.3 27 30.8 1.0 4.0 WNW 0.00 30.190
05/01/2006 12:00 p 66.0 66.0 66.0 66.1 65.8 28 32.0 1.0 3.0 SW 0.00 30.182
05/01/2006 12:10 p 66.2 66.2 66.2 66.6 66.1 27 31.3 1.0 4.0 SSW 0.00 30.178
05/01/2006 12:20 p 66.9 66.9 66.9 67.1 66.6 27 31.9 2.0 8.0 W 0.00 30.177
05/01/2006 12:30 p 67.2 67.2 67.2 67.4 67.1 27 32.1 2.0 5.0 W 0.00 30.174
05/01/2006 12:40 p 67.7 67.7 67.7 68.0 67.4 27 32.5 1.0 4.0 WNW 0.00 30.173
05/01/2006 12:50 p 63.6 68.1 68.1 68.3 68.0 26 32.0 2.0 4.0 NW 0.00 30.170
05/01/2006 1:00 p 63.5 68.1 68.1 68.3 67.6 25 31.0 2.0 5.0 WNW 0.00 30.173
05/01/2006 1:10 p 67.3 67.3 67.3 67.6 67.1 24 29.3 2.0 6.0 WNW 0.00 30.165
05/01/2006 1:20 p 67.4 67.4 67.4 67.5 67.3 24 29.4 2.0 5.0 SW 0.00 30.157
05/01/2006 1:30 p 67.3 67.3 67.3 67.7 67.1 27 32.2 1.0 6.0 NW 0.00 30.156
05/01/2006 1:40 p 63.4 68.0 68.0 68.1 67.7 24 29.9 2.0 4.0 NW 0.00 30.150
05/01/2006 1:50 p 63.3 68.2 68.2 68.3 68.0 23 29.0 2.0 5.0 WNW 0.00 30.143
05/01/2006 2:00 p 67.9 67.9 67.9 68.0 67.8 24 29.8 2.0 6.0 NW 0.00 30.139
05/01/2006 2:10 p 63.1 68.0 68.0 68.2 67.8 21 26.6 2.0 6.0 WSW 0.00 30.137
05/01/2006 2:20 p 63.3 68.3 68.3 68.4 68.2 23 29.1 1.0 4.0 W 0.00 30.136
05/01/2006 2:30 p 63.3 68.4 68.4 68.5 68.3 23 29.2 1.0 4.0 WNW 0.00 30.133
05/01/2006 2:40 p 63.3 68.1 68.1 68.3 68.0 23 28.9 1.0 4.0 NW 0.00 30.126
05/01/2006 2:50 p 63.2 68.3 68.3 68.4 68.2 22 28.0 1.0 4.0 NW 0.00 30.120
05/01/2006 3:00 p 63.2 68.2 68.2 68.4 68.2 22 27.9 1.0 6.0 NW 0.00 30.115
05/01/2006 3:10 p 63.2 68.4 68.4 68.6 68.3 22 28.1 1.0 3.0 NW 0.00 30.107
05/01/2006 3:20 p 65.0 68.8 68.8 69.1 68.6 23 29.5 1.0 4.0 WNW 0.00 30.104
05/01/2006 3:30 p 65.0 69.4 69.4 69.6 69.1 23 30.0 1.0 4.0 N 0.00 30.098
05/01/2006 3:50 p 66.0 69.8 69.8 70.1 69.6 24 31.4 1.0 2.0 WNW 0.00 30.088
05/01/2006 4:00 p 66.0 70.0 70.0 70.1 69.9 23 30.5 1.0 3.0 NW 0.00 30.085
05/01/2006 4:10 p 66.0 70.2 70.2 70.5 69.9 23 30.7 1.0 5.0 ENE 0.00 30.083
05/01/2006 4:20 p 67.0 70.6 70.6 70.7 70.5 20 27.6 1.0 4.0 SW 0.00 30.084
05/01/2006 4:30 p 66.0 70.4 70.4 70.6 70.4 21 28.6 1.0 3.0 SW 0.00 30.081
05/01/2006 4:40 p 67.0 70.6 70.6 70.6 70.4 22 29.9 1.0 6.0 SW 0.00 30.081
05/01/2006 4:50 p 66.0 70.4 70.4 70.6 70.1 22 29.8 1.0 3.0 W 0.00 30.076
05/01/2006 5:00 p 66.0 70.1 70.1 70.2 70.0 21 28.4 1.0 6.0 WSW 0.00 30.078
05/01/2006 5:10 p 66.0 69.9 69.9 70.1 69.8 21 28.2 0.0 2.0 S 0.00 30.075
05/01/2006 5:20 p 66.0 69.5 69.5 69.8 68.8 27 34.1 1.0 5.0 NW 0.00 30.074
05/01/2006 5:30 p 67.9 67.9 67.9 68.7 67.3 27 32.7 2.0 4.0 NW 0.00 30.073
05/01/2006 5:40 p 66.7 66.7 66.7 67.3 66.2 28 32.6 1.0 3.0 NW 0.00 30.074
05/01/2006 5:50 p 65.8 65.8 65.8 66.2 65.5 29 32.7 1.0 4.0 WNW 0.00 30.078
05/01/2006 6:00 p 65.3 65.3 65.3 65.5 65.2 29 32.3 1.0 3.0 WNW 0.00 30.073
05/01/2006 6:10 p 65.1 65.1 65.1 65.2 64.8 28 31.2 1.0 3.0 WNW 0.00 30.072
05/01/2006 6:20 p 64.6 64.6 64.6 64.8 64.4 29 31.7 1.0 3.0 NW 0.00 30.071
05/01/2006 6:30 p 64.2 64.2 64.2 64.4 63.7 29 31.3 1.0 4.0 NW 0.00 30.075
05/01/2006 6:40 p 63.3 63.3 63.3 63.7 62.9 30 31.4 2.0 5.0 WNW 0.00 30.071
05/01/2006 6:50 p 62.6 62.6 62.6 63.0 62.3 32 32.4 1.0 3.0 NW 0.00 30.071
05/01/2006 7:00 p 62.0 62.0 62.0 62.3 61.8 35 34.1 1.0 4.0 NW 0.00 30.077
05/01/2006 7:10 p 61.4 61.4 61.4 61.8 61.1 38 35.6 1.0 3.0 WNW 0.00 30.077
05/01/2006 7:20 p 60.8 60.8 60.8 61.1 60.4 38 35.1 1.0 4.0 NW 0.00 30.082
05/01/2006 7:30 p 60.0 60.0 60.0 60.3 59.6 39 35.0 1.0 3.0 WNW 0.00 30.086
05/01/2006 7:40 p 59.2 59.2 59.2 59.6 58.7 40 34.9 1.0 3.0 WNW 0.00 30.087
05/01/2006 7:50 p 58.4 58.4 58.4 58.8 58.1 42 35.4 0.0 3.0 NW 0.00 30.090
05/01/2006 8:00 p 57.8 57.8 57.8 58.1 57.5 44 36.0 0.0 3.0 NW 0.00 30.093
05/01/2006 8:10 p 57.2 57.2 57.2 57.5 57.0 46 36.6 0.0 2.0 NW 0.00 30.091
05/01/2006 8:20 p 56.7 56.7 56.7 56.9 56.4 46 36.2 0.0 0.0 --- 0.00 30.092
05/01/2006 8:30 p 56.1 56.1 56.1 56.4 55.8 50 37.7 0.0 0.0 --- 0.00 30.085
05/01/2006 8:40 p 55.4 55.4 55.4 55.8 55.1 50 37.1 0.0 0.0 --- 0.00 30.086
05/01/2006 8:50 p 54.8 54.8 54.8 55.1 54.5 51 37.0 0.0 0.0 --- 0.00 30.087
05/01/2006 9:00 p 54.2 54.2 54.2 54.5 53.9 53 37.5 0.0 0.0 --- 0.00 30.088
05/01/2006 9:10 p 53.5 53.5 53.5 53.9 53.2 54 37.3 0.0 0.0 --- 0.00 30.091
05/01/2006 9:20 p 53.0 53.0 53.0 53.2 52.7 56 37.7 0.0 0.0 --- 0.00 30.093
05/01/2006 9:30 p 52.3 52.3 52.3 52.7 52.0 58 38.0 0.0 0.0 --- 0.00 30.094
05/01/2006 9:40 p 51.8 51.8 51.8 52.0 51.5 60 38.4 0.0 0.0 --- 0.00 30.102
05/01/2006 9:50 p 51.2 51.2 51.2 51.5 50.9 61 38.2 0.0 0.0 --- 0.00 30.099
05/01/2006 10:00 p 50.7 50.7 50.7 50.9 50.5 61 37.8 0.0 0.0 --- 0.00 30.098
05/01/2006 10:10 p 50.3 50.3 50.3 50.6 50.0 64 38.6 0.0 0.0 --- 0.00 30.097
05/01/2006 10:20 p 49.7 49.7 49.7 50.0 49.5 65 38.4 0.0 0.0 --- 0.00 30.098
05/01/2006 10:30 p 49.2 49.2 49.2 49.5 49.0 66 38.3 0.0 0.0 --- 0.00 30.091
05/01/2006 10:40 p 48.6 48.6 48.6 49.0 48.3 69 38.9 0.0 0.0 --- 0.00 30.090
05/01/2006 10:50 p 48.0 48.0 48.0 48.3 47.8 69 38.3 0.0 0.0 --- 0.00 30.087
05/01/2006 11:00 p 47.6 47.6 47.6 47.8 47.4 70 38.3 0.0 0.0 --- 0.00 30.083
05/01/2006 11:10 p 47.3 47.3 47.3 47.4 47.1 72 38.7 0.0 0.0 --- 0.00 30.080
05/01/2006 11:20 p 46.8 46.8 46.8 47.1 46.6 73 38.6 0.0 0.0 --- 0.00 30.079
05/01/2006 11:30 p 46.2 46.2 46.2 46.5 46.0 75 38.7 0.0 0.0 --- 0.00 30.083
05/01/2006 11:40 p 45.7 45.7 45.7 46.0 45.5 76 38.6 0.0 0.0 --- 0.00 30.076
05/01/2006 11:50 p 45.4 45.4 45.4 45.6 45.3 76 38.3 0.0 0.0 --- 0.00 30.074
05/02/2006 12:00 a 45.2 45.2 45.2 45.3 44.9 77 38.4 0.0 0.0 --- 0.00 30.075
05/02/2006 12:10 a 44.8 44.8 44.8 44.9 44.7 79 38.7 0.0 0.0 --- 0.00 30.074
05/02/2006 12:20 a 44.7 44.7 44.7 44.7 44.6 78 38.3 0.0 0.0 --- 0.00 30.073
05/02/2006 12:30 a 44.5 44.5 44.5 44.7 44.3 79 38.4 0.0 0.0 --- 0.00 30.068
05/02/2006 12:40 a 44.0 44.0 44.0 44.3 43.9 80 38.2 0.0 0.0 --- 0.00 30.065
05/02/2006 12:50 a 43.7 43.7 43.7 43.8 43.6 81 38.3 0.0 0.0 --- 0.00 30.067
05/02/2006 1:00 a 43.6 43.6 43.6 43.6 43.5 81 38.2 0.0 0.0 --- 0.00 30.063
05/02/2006 1:10 a 43.4 43.4 43.4 43.5 43.3 81 38.0 0.0 0.0 --- 0.00 30.057
05/02/2006 1:20 a 43.1 43.1 43.1 43.3 42.9 81 37.7 0.0 0.0 --- 0.00 30.055
05/02/2006 1:30 a 42.8 42.8 42.8 43.0 42.7 82 37.7 0.0 0.0 --- 0.00 30.056
05/02/2006 1:40 a 42.5 42.5 42.5 42.7 42.4 82 37.4 0.0 0.0 --- 0.00 30.051
05/02/2006 1:50 a 42.3 42.3 42.3 42.4 42.3 83 37.5 0.0 0.0 --- 0.00 30.053
05/02/2006 2:00 a 42.2 42.2 42.2 42.3 42.2 83 37.4 0.0 0.0 --- 0.00 30.050
05/02/2006 2:10 a 42.1 42.1 42.1 42.2 42.1 83 37.3 0.0 0.0 --- 0.00 30.042
05/02/2006 2:20 a 42.0 42.0 42.0 42.1 41.9 83 37.2 0.0 0.0 --- 0.00 30.037
05/02/2006 2:30 a 41.9 41.9 41.9 42.0 41.8 83 37.1 0.0 0.0 --- 0.00 30.033
05/02/2006 2:40 a 41.7 41.7 41.7 41.8 41.6 84 37.2 0.0 0.0 --- 0.00 30.029
05/02/2006 2:50 a 41.6 41.6 41.6 41.7 41.5 83 36.8 0.0 0.0 --- 0.00 30.024
05/02/2006 3:00 a 41.5 41.5 41.5 41.5 41.4 83 36.7 0.0 0.0 --- 0.00 30.019
05/02/2006 3:10 a 41.4 41.4 41.4 41.4 41.3 82 36.3 0.0 0.0 --- 0.00 30.019
05/02/2006 3:20 a 41.4 41.4 41.4 41.5 41.3 83 36.6 0.0 0.0 --- 0.00 30.012
05/02/2006 3:30 a 41.5 41.5 41.5 41.5 41.4 82 36.4 0.0 0.0 --- 0.00 30.005
05/02/2006 3:40 a 41.3 41.3 41.3 41.4 41.1 82 36.2 0.0 0.0 --- 0.00 30.002
05/02/2006 3:50 a 41.1 41.1 41.1 41.2 41.0 82 36.0 0.0 0.0 --- 0.00 30.002
05/02/2006 4:00 a 41.0 41.0 41.0 41.1 41.0 83 36.2 0.0 0.0 --- 0.00 29.995
05/02/2006 4:10 a 41.0 41.0 41.0 41.1 41.0 82 35.9 0.0 0.0 --- 0.00 29.989
05/02/2006 4:20 a 41.0 41.0 41.0 41.0 41.0 82 35.9 0.0 0.0 --- 0.00 29.985
05/02/2006 4:30 a 41.0 41.0 41.0 41.0 41.0 82 35.9 0.0 0.0 --- 0.00 29.983
05/02/2006 4:40 a 41.0 41.0 41.0 41.1 40.9 83 36.2 0.0 0.0 --- 0.00 29.980
05/02/2006 4:50 a 41.0 41.0 41.0 41.1 41.0 81 35.6 0.0 0.0 --- 0.00 29.973
05/02/2006 5:00 a 40.9 40.9 40.9 41.0 40.9 80 35.2 0.0 0.0 --- 0.00 29.976
05/02/2006 5:10 a 40.9 40.9 40.9 40.9 40.9 80 35.2 0.0 0.0 --- 0.00 29.975
05/02/2006 5:20 a 40.9 40.9 40.9 40.9 40.9 79 34.9 0.0 0.0 --- 0.00 29.975
05/02/2006 5:30 a 40.8 40.8 40.8 40.9 40.7 81 35.4 0.0 0.0 --- 0.00 29.974
05/02/2006 5:40 a 40.8 40.8 40.8 40.9 40.7 82 35.7 0.0 0.0 --- 0.00 29.970
05/02/2006 5:50 a 41.2 41.2 41.2 41.4 40.9 81 35.8 0.0 0.0 --- 0.00 29.970
05/02/2006 6:00 a 41.5 41.5 41.5 41.5 41.4 80 35.8 0.0 0.0 --- 0.00 29.969
05/02/2006 6:10 a 41.5 41.5 41.5 41.5 41.4 79 35.5 0.0 0.0 --- 0.00 29.968
05/02/2006 6:20 a 41.3 41.3 41.3 41.4 41.2 79 35.3 0.0 0.0 --- 0.00 29.965
05/02/2006 6:30 a 41.2 41.2 41.2 41.3 41.2 78 34.9 0.0 0.0 --- 0.00 29.961
05/02/2006 6:40 a 41.3 41.3 41.3 41.3 41.2 79 35.3 0.0 0.0 --- 0.00 29.960
05/02/2006 6:50 a 41.4 41.4 41.4 41.5 41.3 80 35.7 0.0 0.0 --- 0.00 29.958
05/02/2006 7:00 a 41.6 41.6 41.6 41.8 41.5 80 35.9 0.0 0.0 --- 0.00 29.956
05/02/2006 7:10 a 42.0 42.0 42.0 42.2 41.8 82 36.9 0.0 0.0 --- 0.00 29.951
05/02/2006 7:20 a 42.4 42.4 42.4 42.7 42.2 81 37.0 0.0 0.0 --- 0.00 29.954
05/02/2006 7:30 a 42.9 42.9 42.9 43.1 42.6 81 37.5 0.0 0.0 --- 0.00 29.952
05/02/2006 7:40 a 43.4 43.4 43.4 43.7 43.1 81 38.0 0.0 0.0 --- 0.00 29.951
05/02/2006 7:50 a 44.0 44.0 44.0 44.4 43.7 79 37.9 0.0 0.0 --- 0.00 29.950
05/02/2006 8:00 a 45.0 45.0 45.0 45.5 44.4 79 38.9 0.0 0.0 --- 0.00 29.950
05/02/2006 8:10 a 45.9 45.9 45.9 46.3 45.5 77 39.1 0.0 0.0 --- 0.00 29.948
05/02/2006 8:20 a 46.8 46.8 46.8 47.3 46.3 75 39.3 0.0 0.0 --- 0.00 29.941
05/02/2006 8:30 a 47.9 47.9 47.9 48.3 47.4 68 37.9 0.0 0.0 --- 0.00 29.938
05/02/2006 8:40 a 48.8 48.8 48.8 49.2 48.3 62 36.4 0.0 0.0 --- 0.00 29.935
05/02/2006 8:50 a 49.8 49.8 49.8 50.4 49.2 55 34.3 0.0 0.0 --- 0.00 29.932
05/02/2006 9:00 a 51.1 51.1 51.1 51.7 50.3 52 34.1 0.0 3.0 NW 0.00 29.929
05/02/2006 9:10 a 52.1 52.1 52.1 52.4 51.7 50 34.0 0.0 1.0 --- 0.00 29.927
05/02/2006 9:20 a 52.6 52.6 52.6 52.8 52.3 50 34.5 1.0 3.0 NNE 0.00 29.924
05/02/2006 9:30 a 53.1 53.1 53.1 53.4 52.8 47 33.4 1.0 4.0 ENE 0.00 29.923
05/02/2006 9:40 a 53.7 53.7 53.7 54.0 53.5 48 34.5 0.0 3.0 ENE 0.00 29.919
05/02/2006 9:50 a 54.2 54.2 54.2 54.4 54.0 48 35.0 0.0 1.0 ENE 0.00 29.915
05/02/2006 10:00 a 54.7 54.7 54.7 54.9 54.4 46 34.3 1.0 5.0 ENE 0.00 29.910
05/02/2006 10:10 a 55.0 55.0 55.0 55.1 54.9 45 34.1 0.0 5.0 E 0.00 29.907
05/02/2006 10:20 a 55.4 55.4 55.4 55.6 55.1 43 33.3 1.0 5.0 E 0.00 29.905
05/02/2006 10:30 a 55.8 55.8 55.8 56.1 55.6 45 34.8 0.0 4.0 E 0.00 29.898
05/02/2006 10:40 a 56.4 56.4 56.4 56.7 56.1 42 33.6 1.0 3.0 E 0.00 29.895
05/02/2006 10:50 a 56.9 56.9 56.9 57.0 56.7 44 35.2 0.0 2.0 E 0.00 29.892
05/02/2006 11:00 a 57.3 57.3 57.3 57.5 57.0 40 33.2 1.0 6.0 E 0.00 29.890
05/02/2006 11:10 a 57.8 57.8 57.8 58.1 57.5 40 33.7 1.0 5.0 E 0.00 29.882
05/02/2006 11:20 a 58.2 58.2 58.2 58.5 58.0 39 33.4 0.0 3.0 E 0.00 29.879
05/02/2006 11:30 a 58.8 58.8 58.8 59.0 58.5 37 32.6 0.0 4.0 E 0.00 29.872
05/02/2006 11:40 a 59.0 59.0 59.0 59.1 58.9 41 35.4 0.0 3.0 E 0.00 29.866
05/02/2006 11:50 a 59.4 59.4 59.4 59.7 59.1 38 33.8 1.0 5.0 E 0.00 29.862
05/02/2006 12:00 p 60.0 60.0 60.0 60.3 59.8 38 34.3 1.0 4.0 E 0.00 29.854
05/02/2006 12:10 p 60.5 60.5 60.5 60.8 60.2 36 33.4 0.0 3.0 SE 0.00 29.851
05/02/2006 12:20 p 61.2 61.2 61.2 61.5 60.8 36 34.1 0.0 3.0 SE 0.00 29.843
05/02/2006 12:30 p 61.8 61.8 61.8 62.1 61.5 34 33.2 0.0 5.0 E 0.00 29.838
05/02/2006 12:40 p 62.4 62.4 62.4 62.6 62.1 36 35.1 1.0 4.0 E 0.00 29.835
05/02/2006 12:50 p 62.8 62.8 62.8 63.0 62.6 34 34.0 0.0 1.0 E 0.00 29.826
05/02/2006 1:00 p 63.4 63.4 63.4 63.7 63.0 32 33.1 1.0 3.0 ESE 0.00 29.823
05/02/2006 1:10 p 63.9 63.9 63.9 64.1 63.8 33 34.3 1.0 5.0 E 0.00 29.812
05/02/2006 1:20 p 64.3 64.3 64.3 64.4 64.1 32 33.8 1.0 5.0 E 0.00 29.815
05/02/2006 1:30 p 64.5 64.5 64.5 64.7 64.3 32 34.0 0.0 1.0 E 0.00 29.807
05/02/2006 1:40 p 65.2 65.2 65.2 65.7 64.7 29 32.2 0.0 3.0 E 0.00 29.804
05/02/2006 1:50 p 66.2 66.2 66.2 66.5 65.7 32 35.5 1.0 6.0 E 0.00 29.798
05/02/2006 2:00 p 66.9 66.9 66.9 67.1 66.5 28 32.8 1.0 4.0 E 0.00 29.795
05/02/2006 2:10 p 67.0 67.0 67.0 67.1 67.0 28 32.8 1.0 6.0 E 0.00 29.786
05/02/2006 2:20 p 67.4 67.4 67.4 67.7 67.1 27 32.3 0.0 4.0 ENE 0.00 29.785
05/02/2006 2:30 p 67.9 67.9 67.9 68.0 67.7 29 34.5 0.0 2.0 NE 0.00 29.780
05/02/2006 2:40 p 63.7 68.1 68.1 68.2 68.0 27 32.9 0.0 3.0 NE 0.00 29.777
05/02/2006 2:50 p 67.9 67.9 67.9 68.1 67.6 28 33.6 1.0 2.0 NE 0.00 29.770
05/02/2006 3:00 p 67.6 67.6 67.6 67.6 67.5 27 32.5 0.0 2.0 N 0.00 29.760
05/02/2006 3:10 p 67.7 67.7 67.7 67.8 67.5 27 32.5 1.0 5.0 E 0.00 29.752
05/02/2006 3:20 p 67.9 67.9 67.9 67.9 67.8 28 33.6 0.0 2.0 E 0.00 29.752
05/02/2006 3:30 p 63.8 68.0 68.0 68.1 67.9 28 33.7 0.0 3.0 NE 0.00 29.750
05/02/2006 3:40 p 63.8 68.4 68.4 68.6 68.1 28 34.1 0.0 3.0 ENE 0.00 29.749
05/02/2006 3:50 p 65.0 68.5 68.5 68.6 68.4 29 35.0 0.0 2.0 ENE 0.00 29.745
05/02/2006 4:00 p 65.0 68.5 68.5 68.6 68.4 27 33.2 1.0 2.0 N 0.00 29.743
05/02/2006 4:10 p 65.0 68.8 68.8 68.8 68.6 29 35.3 1.0 3.0 SSW 0.00 29.740
05/02/2006 4:20 p 65.0 68.8 68.8 69.0 68.8 27 33.5 0.0 1.0 W 0.00 29.734
05/02/2006 4:30 p 65.0 69.2 69.2 69.3 69.0 29 35.6 0.0 2.0 W 0.00 29.736
05/02/2006 4:40 p 65.0 69.1 69.1 69.3 69.0 27 33.7 0.0 2.0 W 0.00 29.733
05/02/2006 4:50 p 65.0 68.8 68.8 69.0 68.6 29 35.3 1.0 3.0 NW 0.00 29.733
05/02/2006 5:00 p 65.0 68.5 68.5 68.7 68.2 28 34.1 0.0 2.0 W 0.00 29.731
05/02/2006 5:10 p 63.9 68.1 68.1 68.2 68.0 29 34.7 0.0 1.0 W 0.00 29.734
05/02/2006 5:20 p 63.8 68.4 68.4 68.6 68.1 28 34.1 0.0 2.0 W 0.00 29.733
05/02/2006 5:30 p 65.0 68.6 68.6 68.7 68.5 28 34.2 0.0 0.0 --- 0.00 29.735
05/02/2006 5:40 p 63.8 68.4 68.4 68.6 68.2 28 34.1 0.0 2.0 W 0.00 29.732
05/02/2006 5:50 p 63.8 68.1 68.1 68.2 68.0 28 33.8 0.0 0.0 --- 0.00 29.731
05/02/2006 6:00 p 67.8 67.8 67.8 68.0 67.7 31 36.1 0.0 0.0 --- 0.00 29.730
05/02/2006 6:10 p 67.5 67.5 67.5 67.7 66.7 35 38.9 1.0 4.0 WNW 0.00 29.736
05/02/2006 6:20 p 65.1 65.1 65.1 66.7 63.4 45 43.3 1.0 3.0 WNW 0.00 29.746
05/02/2006 6:30 p 61.1 61.1 61.1 63.4 59.2 53 43.9 2.0 5.0 NW 0.00 29.750
05/02/2006 6:40 p 58.2 58.2 58.2 59.2 57.4 58 43.5 1.0 4.0 WNW 0.00 29.751
05/02/2006 6:50 p 56.9 56.9 56.9 57.4 56.6 60 43.2 1.0 4.0 WNW 0.00 29.753
05/02/2006 7:00 p 56.4 56.4 56.4 56.6 56.2 63 44.0 1.0 3.0 NW 0.00 29.760
05/02/2006 7:10 p 56.2 56.2 56.2 56.3 56.2 64 44.2 0.0 5.0 E 0.00 29.761
05/02/2006 7:20 p 56.2 56.2 56.2 56.3 56.1 65 44.6 1.0 4.0 NW 0.00 29.764
05/02/2006 7:30 p 56.0 56.0 56.0 56.1 55.9 66 44.8 0.0 3.0 NW 0.00 29.765
05/02/2006 7:40 p 55.8 55.8 55.8 56.0 55.7 69 45.8 1.0 4.0 NW 0.00 29.770
05/02/2006 7:50 p 55.5 55.5 55.5 55.7 55.3 71 46.3 1.0 3.0 NW 0.00 29.774
05/02/2006 8:00 p 55.2 55.2 55.2 55.3 55.1 72 46.3 1.0 3.0 NW 0.00 29.779
05/02/2006 8:10 p 55.0 55.0 55.0 55.1 54.8 73 46.5 0.0 2.0 NW 0.00 29.777
05/02/2006 8:20 p 54.7 54.7 54.7 54.8 54.6 74 46.6 0.0 3.0 NW 0.00 29.775
05/02/2006 8:30 p 54.5 54.5 54.5 54.6 54.4 74 46.4 0.0 2.0 NW 0.00 29.776
05/02/2006 8:40 p 54.4 54.4 54.4 54.4 54.3 74 46.3 0.0 1.0 NW 0.00 29.777
05/02/2006 8:50 p 54.3 54.3 54.3 54.3 54.2 75 46.6 0.0 1.0 NW 0.00 29.780
05/02/2006 9:00 p 54.2 54.2 54.2 54.3 54.2 75 46.5 0.0 1.0 NW 0.00 29.783
05/02/2006 9:10 p 54.2 54.2 54.2 54.2 54.2 76 46.8 0.0 0.0 --- 0.00 29.789
05/02/2006 9:20 p 54.2 54.2 54.2 54.2 54.1 76 46.8 0.0 0.0 --- 0.00 29.787
05/02/2006 9:30 p 54.0 54.0 54.0 54.1 53.9 76 46.6 0.0 0.0 --- 0.00 29.790
05/02/2006 9:40 p 53.8 53.8 53.8 53.9 53.7 76 46.4 0.0 0.0 --- 0.00 29.792
05/02/2006 9:50 p 53.7 53.7 53.7 53.7 53.6 77 46.7 0.0 0.0 --- 0.00 29.793
05/02/2006 10:00 p 53.6 53.6 53.6 53.6 53.5 77 46.6 0.0 0.0 --- 0.00 29.793
05/02/2006 10:10 p 53.4 53.4 53.4 53.5 53.3 77 46.4 0.0 0.0 --- 0.00 29.795
05/02/2006 10:20 p 53.2 53.2 53.2 53.3 53.1 77 46.2 0.0 0.0 --- 0.00 29.794
05/02/2006 10:30 p 53.1 53.1 53.1 53.2 53.0 78 46.4 0.0 0.0 --- 0.00 29.792
05/02/2006 10:40 p 52.9 52.9 52.9 53.0 52.9 78 46.2 0.0 0.0 --- 0.00 29.793
05/02/2006 10:50 p 52.8 52.8 52.8 52.9 52.7 78 46.1 0.0 0.0 --- 0.00 29.796
05/02/2006 11:00 p 52.6 52.6 52.6 52.7 52.5 79 46.3 0.0 0.0 --- 0.00 29.793
05/02/2006 11:10 p 52.5 52.5 52.5 52.5 52.4 79 46.2 0.0 0.0 --- 0.00 29.793
05/02/2006 11:20 p 52.3 52.3 52.3 52.4 52.2 80 46.3 0.0 0.0 --- 0.00 29.793
05/02/2006 11:30 p 52.1 52.1 52.1 52.3 52.1 80 46.1 0.0 0.0 --- 0.00 29.788
05/02/2006 11:40 p 52.0 52.0 52.0 52.1 51.9 80 46.0 0.0 0.0 --- 0.00 29.786
05/02/2006 11:50 p 51.8 51.8 51.8 51.9 51.8 80 45.8 0.0 0.0 --- 0.00 29.787
05/03/2006 12:00 a 51.7 51.7 51.7 51.8 51.6 81 46.1 0.0 0.0 --- 0.00 29.778
05/03/2006 12:10 a 51.5 51.5 51.5 51.6 51.5 81 45.9 0.0 0.0 --- 0.00 29.779
05/03/2006 12:20 a 51.5 51.5 51.5 51.5 51.4 81 45.9 0.0 0.0 --- 0.00 29.775
05/03/2006 12:30 a 51.4 51.4 51.4 51.5 51.3 82 46.1 0.0 0.0 --- 0.00 29.775
05/03/2006 12:40 a 51.2 51.2 51.2 51.3 51.1 82 45.9 0.0 0.0 --- 0.00 29.776
05/03/2006 12:50 a 51.0 51.0 51.0 51.1 51.0 82 45.7 0.0 0.0 --- 0.00 29.773
05/03/2006 1:00 a 51.0 51.0 51.0 51.1 51.0 83 46.0 0.0 0.0 --- 0.00 29.773
05/03/2006 1:10 a 51.1 51.1 51.1 51.1 51.0 83 46.1 0.0 0.0 --- 0.00 29.771
05/03/2006 1:20 a 51.0 51.0 51.0 51.1 51.0 83 46.0 0.0 0.0 --- 0.00 29.770
05/03/2006 1:30 a 51.0 51.0 51.0 51.1 51.0 82 45.7 0.0 0.0 --- 0.00 29.766
05/03/2006 1:40 a 50.9 50.9 50.9 51.0 50.8 83 45.9 0.0 0.0 --- 0.00 29.765
05/03/2006 1:50 a 50.7 50.7 50.7 50.8 50.5 83 45.7 0.0 0.0 --- 0.00 29.762
05/03/2006 2:00 a 50.5 50.5 50.5 50.6 50.4 84 45.9 0.0 0.0 --- 0.00 29.756
05/03/2006 2:10 a 50.4 50.4 50.4 50.5 50.3 84 45.8 0.0 0.0 --- 0.00 29.752
05/03/2006 2:20 a 50.3 50.3 50.3 50.4 50.2 84 45.7 0.0 0.0 --- 0.00 29.751
05/03/2006 2:30 a 50.1 50.1 50.1 50.3 50.0 84 45.5 0.0 0.0 --- 0.00 29.746
05/03/2006 2:40 a 49.8 49.8 49.8 50.0 49.6 85 45.5 0.0 0.0 --- 0.00 29.743
05/03/2006 2:50 a 49.4 49.4 49.4 49.6 49.2 85 45.1 0.0 0.0 --- 0.00 29.750
05/03/2006 3:00 a 49.1 49.1 49.1 49.3 48.9 86 45.1 0.0 0.0 --- 0.00 29.746
05/03/2006 3:10 a 48.7 48.7 48.7 48.9 48.6 86 44.7 0.0 0.0 --- 0.00 29.744
05/03/2006 3:20 a 48.4 48.4 48.4 48.6 48.2 87 44.7 0.0 0.0 --- 0.00 29.744
05/03/2006 3:30 a 48.2 48.2 48.2 48.3 48.0 88 44.8 0.0 0.0 --- 0.00 29.740
05/03/2006 3:40 a 48.0 48.0 48.0 48.1 47.9 89 44.9 0.0 0.0 --- 0.00 29.737
05/03/2006 3:50 a 48.2 48.2 48.2 48.3 48.0 88 44.8 0.0 0.0 --- 0.00 29.737
05/03/2006 4:00 a 48.2 48.2 48.2 48.3 48.1 88 44.8 0.0 0.0 --- 0.00 29.734
05/03/2006 4:10 a 48.1 48.1 48.1 48.2 48.0 89 45.0 0.0 0.0 --- 0.00 29.731
05/03/2006 4:20 a 48.0 48.0 48.0 48.1 48.0 89 44.9 0.0 0.0 --- 0.00 29.731
05/03/2006 4:30 a 48.1 48.1 48.1 48.2 48.1 89 45.0 0.0 0.0 --- 0.00 29.732
05/03/2006 4:40 a 48.0 48.0 48.0 48.2 47.9 89 44.9 0.0 0.0 --- 0.00 29.732
05/03/2006 4:50 a 47.8 47.8 47.8 47.9 47.8 89 44.7 0.0 0.0 --- 0.00 29.730
05/03/2006 5:00 a 47.8 47.8 47.8 47.8 47.7 89 44.7 0.0 0.0 --- 0.00 29.730
05/03/2006 5:10 a 47.7 47.7 47.7 47.8 47.6 90 44.9 0.0 0.0 --- 0.00 29.734
05/03/2006 5:20 a 47.5 47.5 47.5 47.6 47.5 90 44.7 0.0 0.0 --- 0.00 29.738
05/03/2006 5:30 a 47.6 47.6 47.6 47.9 47.4 94 46.0 0.0 0.0 --- 0.00 29.738
05/03/2006 5:40 a 47.8 47.8 47.8 48.0 47.6 90 45.0 0.0 0.0 --- 0.00 29.742
05/03/2006 5:50 a 47.6 47.6 47.6 47.7 47.5 89 44.5 0.0 0.0 --- 0.00 29.746
05/03/2006 6:00 a 47.5 47.5 47.5 47.5 47.4 89 44.4 0.0 0.0 --- 0.00 29.746
05/03/2006 6:10 a 47.3 47.3 47.3 47.4 47.1 89 44.2 0.0 0.0 --- 0.00 29.744
05/03/2006 6:20 a 47.1 47.1 47.1 47.1 47.0 90 44.3 0.0 0.0 --- 0.00 29.753
05/03/2006 6:30 a 46.9 46.9 46.9 47.0 46.8 90 44.1 0.0 0.0 --- 0.00 29.760
05/03/2006 6:40 a 46.8 46.8 46.8 46.9 46.7 90 44.0 0.0 0.0 --- 0.00 29.765
05/03/2006 6:50 a 46.7 46.7 46.7 46.7 46.6 91 44.2 0.0 0.0 --- 0.00 29.761
05/03/2006 7:00 a 46.8 46.8 46.8 46.9 46.7 92 44.6 0.0 0.0 --- 0.00 29.765
05/03/2006 7:10 a 47.1 47.1 47.1 47.4 46.9 94 45.5 0.0 0.0 --- 0.00 29.768
05/03/2006 7:20 a 48.0 48.0 48.0 48.5 47.4 90 45.2 0.0 0.0 --- 0.00 29.767
05/03/2006 7:30 a 49.0 49.0 49.0 49.6 48.5 86 45.0 0.0 0.0 --- 0.00 29.767
05/03/2006 7:40 a 50.2 50.2 50.2 50.7 49.6 83 45.2 0.0 0.0 --- 0.00 29.770
05/03/2006 7:50 a 51.3 51.3 51.3 51.8 50.7 81 45.7 0.0 1.0 NW 0.00 29.763
05/03/2006 8:00 a 52.2 52.2 52.2 52.6 51.8 79 45.9 0.0 0.0 --- 0.00 29.758
05/03/2006 8:10 a 52.9 52.9 52.9 53.1 52.6 77 45.9 0.0 0.0 --- 0.00 29.755
05/03/2006 8:20 a 53.5 53.5 53.5 53.9 53.2 74 45.4 0.0 3.0 NE 0.00 29.760
05/03/2006 8:30 a 54.3 54.3 54.3 54.7 53.9 73 45.8 0.0 2.0 NE 0.00 29.757
05/03/2006 8:40 a 54.9 54.9 54.9 55.2 54.7 72 46.1 0.0 0.0 --- 0.00 29.757
05/03/2006 8:50 a 55.6 55.6 55.6 56.1 55.2 69 45.6 0.0 3.0 NE 0.00 29.755
05/03/2006 9:00 a 56.3 56.3 56.3 56.5 56.2 69 46.3 0.0 1.0 NE 0.00 29.752
05/03/2006 9:10 a 56.7 56.7 56.7 56.9 56.5 68 46.3 0.0 3.0 NE 0.00 29.752
05/03/2006 9:20 a 57.1 57.1 57.1 57.2 56.9 67 46.3 0.0 0.0 --- 0.00 29.750
05/03/2006 9:30 a 57.5 57.5 57.5 57.8 57.2 64 45.4 0.0 3.0 NE 0.00 29.749
05/03/2006 9:40 a 58.4 58.4 58.4 59.1 57.8 63 45.9 0.0 3.0 NE 0.00 29.747
05/03/2006 9:50 a 59.7 59.7 59.7 60.2 59.1 62 46.7 0.0 3.0 NE 0.00 29.743
05/03/2006 10:00 a 60.6 60.6 60.6 60.8 60.2 59 46.2 0.0 2.0 ENE 0.00 29.739
05/03/2006 10:10 a 60.9 60.9 60.9 61.1 60.8 58 46.0 0.0 4.0 E 0.00 29.738
05/03/2006 10:20 a 61.4 61.4 61.4 61.9 61.1 59 47.0 1.0 4.0 E 0.00 29.733
05/03/2006 10:30 a 62.6 62.6 62.6 63.1 62.0 55 46.2 1.0 6.0 E 0.00 29.729
05/03/2006 10:40 a 63.3 63.3 63.3 63.5 63.1 55 46.9 0.0 2.0 E 0.00 29.727
05/03/2006 10:50 a 63.7 63.7 63.7 63.9 63.5 52 45.8 0.0 5.0 E 0.00 29.731
05/03/2006 11:00 a 63.7 63.7 63.7 63.9 63.5 53 46.3 0.0 4.0 E 0.00 29.734
05/03/2006 11:10 a 63.4 63.4 63.4 63.5 63.3 55 47.0 0.0 3.0 ESE 0.00 29.730
05/03/2006 11:20 a 63.6 63.6 63.6 63.7 63.4 52 45.7 0.0 3.0 SE 0.00 29.733
05/03/2006 11:30 a 63.6 63.6 63.6 63.7 63.6 52 45.7 1.0 4.0 E 0.00 29.724
05/03/2006 11:40 a 63.8 63.8 63.8 63.9 63.6 51 45.3 0.0 2.0 SW 0.00 29.722
05/03/2006 11:50 a 64.0 64.0 64.0 64.1 63.9 51 45.5 0.0 3.0 SE 0.00 29.721
05/03/2006 12:00 p 64.6 64.6 64.6 65.0 64.1 49 45.0 1.0 6.0 E 0.00 29.719
05/03/2006 12:10 p 65.6 65.6 65.6 66.1 65.1 49 45.9 1.0 3.0 SE 0.00 29.718
05/03/2006 12:20 p 66.3 66.3 66.3 66.7 66.1 48 46.0 2.0 9.0 E 0.00 29.708
05/03/2006 12:30 p 67.3 67.3 67.3 67.8 66.7 46 45.8 2.0 7.0 E 0.00 29.703
05/03/2006 12:40 p 67.9 67.9 67.9 68.2 67.8 45 45.8 2.0 9.0 E 0.00 29.695
05/03/2006 12:50 p 67.0 68.7 68.7 69.2 68.2 44 45.9 1.0 7.0 ESE 0.00 29.692
05/03/2006 1:00 p 67.0 69.4 69.4 69.8 69.1 42 45.3 1.0 4.0 ENE 0.00 29.688
05/03/2006 1:10 p 68.0 70.0 70.0 70.2 69.8 42 45.9 1.0 5.0 E 0.00 29.692
05/03/2006 1:20 p 69.0 70.7 70.7 71.1 70.2 40 45.2 1.0 6.0 E 0.00 29.686
05/03/2006 1:30 p 69.0 71.0 71.0 71.1 70.9 42 46.8 0.0 5.0 E 0.00 29.682
05/03/2006 1:40 p 69.0 71.1 71.1 71.1 70.9 41 46.2 1.0 5.0 E 0.00 29.678
05/03/2006 1:50 p 69.0 70.7 70.7 70.9 70.5 42 46.5 0.0 3.0 E 0.00 29.678
05/03/2006 2:00 p 69.0 70.7 70.7 70.8 70.5 42 46.5 1.0 4.0 SE 0.00 29.675
05/03/2006 2:10 p 69.0 70.7 70.7 70.8 70.5 41 45.9 1.0 3.0 ESE 0.00 29.674
05/03/2006 2:20 p 68.0 70.1 70.1 70.5 69.8 42 46.0 1.0 4.0 E 0.00 29.672
05/03/2006 2:30 p 68.0 70.2 70.2 70.9 69.8 44 47.3 1.0 6.0 E 0.00 29.668
05/03/2006 2:40 p 69.0 71.3 71.3 71.6 70.9 40 45.8 1.0 8.0 ESE 0.00 29.671
05/03/2006 2:50 p 70.1 71.7 71.7 71.8 71.6 41 46.8 1.0 6.0 E 0.00 29.665
05/03/2006 3:00 p 70.2 71.6 71.6 71.8 71.4 42 47.3 1.0 4.0 ESE 0.00 29.663
05/03/2006 3:10 p 69.0 71.2 71.2 71.4 71.0 41 46.3 0.0 3.0 SSE 0.00 29.663
05/03/2006 3:20 p 69.0 71.1 71.1 71.2 71.1 40 45.6 1.0 5.0 E 0.00 29.662
05/03/2006 3:30 p 69.0 70.9 70.9 71.2 70.7 40 45.4 1.0 3.0 ESE 0.00 29.657
05/03/2006 3:40 p 69.0 70.7 70.7 70.8 70.6 41 45.9 1.0 6.0 E 0.00 29.656
05/03/2006 3:50 p 69.0 70.8 70.8 70.8 70.7 41 46.0 1.0 5.0 E 0.00 29.655
05/03/2006 4:00 p 69.0 70.6 70.6 70.7 70.5 42 46.4 1.0 5.0 E 0.00 29.654
05/03/2006 4:10 p 69.0 70.5 70.5 70.6 70.5 41 45.7 1.0 5.0 E 0.00 29.650
05/03/2006 4:20 p 69.0 70.7 70.7 70.8 70.6 44 47.7 0.0 4.0 E 0.00 29.653
05/03/2006 4:30 p 69.0 70.8 70.8 70.9 70.7 41 46.0 0.0 2.0 E 0.00 29.654
05/03/2006 4:40 p 69.0 70.6 70.6 70.8 70.5 42 46.4 1.0 4.0 ENE 0.00 29.655
05/03/2006 4:50 p 69.0 70.7 70.7 70.9 70.5 41 45.9 1.0 5.0 E 0.00 29.657
05/03/2006 5:00 p 69.0 71.0 71.0 71.1 70.9 40 45.5 1.0 4.0 E 0.00 29.658
05/03/2006 5:10 p 69.0 71.0 71.0 71.1 70.8 40 45.5 1.0 7.0 E 0.00 29.658
05/03/2006 5:20 p 69.0 70.6 70.6 70.8 70.5 41 45.8 0.0 2.0 E 0.00 29.663
05/03/2006 5:30 p 68.0 70.4 70.4 70.5 70.4 44 47.5 0.0 1.0 E 0.00 29.662
05/03/2006 5:40 p 68.0 70.4 70.4 70.4 70.3 43 46.9 0.0 3.0 E 0.00 29.664
05/03/2006 5:50 p 68.0 70.4 70.4 70.4 70.3 42 46.2 0.0 2.0 E 0.00 29.665
05/03/2006 6:00 p 68.0 70.2 70.2 70.3 70.1 45 47.9 0.0 3.0 E 0.00 29.665
05/03/2006 6:10 p 68.0 70.4 70.4 70.5 70.2 42 46.2 1.0 5.0 E 0.00 29.668
05/03/2006 6:20 p 69.0 70.6 70.6 70.6 70.5 42 46.4 0.0 2.0 E 0.00 29.673
05/03/2006 6:30 p 69.0 70.5 70.5 70.6 70.4 43 47.0 0.0 2.0 E 0.00 29.672
05/03/2006 6:40 p 68.0 70.2 70.2 70.4 70.0 45 47.9 0.0 4.0 E 0.00 29.681
05/03/2006 6:50 p 67.6 68.5 68.5 70.0 66.5 53 50.7 1.0 3.0 NW 0.00 29.691
05/03/2006 7:00 p 64.8 64.8 64.8 66.5 63.4 58 49.7 1.0 4.0 NW 0.00 29.695
05/03/2006 7:10 p 62.5 62.5 62.5 63.4 61.7 61 48.9 1.0 3.0 NW 0.00 29.704
05/03/2006 7:20 p 61.2 61.2 61.2 61.7 60.8 63 48.5 0.0 3.0 NW 0.00 29.711
05/03/2006 7:30 p 60.6 60.6 60.6 60.9 60.3 64 48.4 0.0 1.0 NW 0.00 29.715
05/03/2006 7:40 p 60.2 60.2 60.2 60.3 60.1 65 48.4 0.0 1.0 NW 0.00 29.723
05/03/2006 7:50 p 60.0 60.0 60.0 60.1 60.0 66 48.6 0.0 0.0 --- 0.00 29.724
05/03/2006 8:00 p 59.9 59.9 59.9 60.0 59.8 67 48.9 0.0 0.0 --- 0.00 29.724
05/03/2006 8:10 p 59.8 59.8 59.8 59.8 59.7 68 49.2 0.0 0.0 --- 0.00 29.728
05/03/2006 8:20 p 59.7 59.7 59.7 59.7 59.6 69 49.5 0.0 0.0 --- 0.00 29.732
05/03/2006 8:30 p 59.5 59.5 59.5 59.6 59.4 69 49.3 0.0 0.0 --- 0.00 29.731
05/03/2006 8:40 p 59.3 59.3 59.3 59.4 59.2 70 49.5 0.0 0.0 --- 0.00 29.739
05/03/2006 8:50 p 59.2 59.2 59.2 59.3 59.2 71 49.8 0.0 0.0 --- 0.00 29.744
05/03/2006 9:00 p 59.1 59.1 59.1 59.2 59.0 70 49.3 0.0 0.0 --- 0.00 29.747
05/03/2006 9:10 p 58.9 58.9 58.9 59.0 58.6 72 49.9 0.0 0.0 --- 0.00 29.751
05/03/2006 9:20 p 58.4 58.4 58.4 58.6 58.1 73 49.8 0.0 0.0 --- 0.00 29.750
05/03/2006 9:30 p 58.0 58.0 58.0 58.2 57.9 75 50.1 0.0 1.0 NW 0.00 29.755
05/03/2006 9:40 p 58.1 58.1 58.1 58.7 57.8 71 48.8 0.0 3.0 ESE 0.00 29.753
05/03/2006 9:50 p 59.6 59.6 59.6 60.3 58.7 68 49.0 0.0 4.0 ESE 0.00 29.756
05/03/2006 10:00 p 60.6 60.6 60.6 60.8 60.3 67 49.6 0.0 2.0 SW 0.00 29.765
05/03/2006 10:10 p 60.9 60.9 60.9 60.9 60.8 68 50.3 0.0 3.0 S 0.00 29.756
05/03/2006 10:20 p 60.8 60.8 60.8 60.9 60.7 69 50.6 0.0 3.0 S 0.00 29.759
05/03/2006 10:30 p 60.6 60.6 60.6 60.7 60.4 70 50.8 0.0 1.0 WSW 0.00 29.758
05/03/2006 10:40 p 60.3 60.3 60.3 60.4 60.2 71 50.9 0.0 2.0 WSW 0.00 29.760
05/03/2006 10:50 p 60.1 60.1 60.1 60.2 60.1 71 50.7 0.0 1.0 WSW 0.00 29.763
05/03/2006 11:00 p 60.0 60.0 60.0 60.1 60.0 72 51.0 0.0 0.0 --- 0.00 29.759
05/03/2006 11:10 p 60.0 60.0 60.0 60.0 59.9 73 51.3 0.0 0.0 --- 0.00 29.758
05/03/2006 11:20 p 59.9 59.9 59.9 59.9 59.8 73 51.2 0.0 2.0 WSW 0.00 29.757
05/03/2006 11:30 p 59.7 59.7 59.7 59.8 59.6 73 51.0 0.0 0.0 --- 0.00 29.757
05/03/2006 11:40 p 59.5 59.5 59.5 59.6 59.4 74 51.2 0.0 0.0 --- 0.00 29.748
05/03/2006 11:50 p 59.2 59.2 59.2 59.4 59.0 75 51.3 0.0 0.0 --- 0.00 29.747
05/04/2006 12:00 a 59.0 59.0 59.0 59.1 58.9 76 51.5 0.0 0.0 --- 0.00 29.754
05/04/2006 12:10 a 59.0 59.0 59.0 59.1 59.0 76 51.5 0.0 0.0 --- 0.00 29.756
05/04/2006 12:20 a 59.2 59.2 59.2 59.3 59.1 76 51.6 0.0 0.0 --- 0.00 29.754
05/04/2006 12:30 a 59.3 59.3 59.3 59.3 59.2 75 51.4 0.0 0.0 --- 0.00 29.756
05/04/2006 12:40 a 59.3 59.3 59.3 59.5 59.3 75 51.4 0.0 2.0 WSW 0.00 29.755
05/04/2006 12:50 a 59.4 59.4 59.4 59.5 59.4 75 51.5 0.0 0.0 --- 0.00 29.748
05/04/2006 1:00 a 59.4 59.4 59.4 59.5 59.4 75 51.5 0.0 1.0 WSW 0.00 29.756
05/04/2006 1:10 a 59.4 59.4 59.4 59.5 59.4 75 51.5 0.0 1.0 WSW 0.00 29.754
05/04/2006 1:20 a 59.5 59.5 59.5 59.5 59.4 75 51.6 0.0 2.0 WSW 0.00 29.748
05/04/2006 1:30 a 59.5 59.5 59.5 59.5 59.5 75 51.6 0.0 0.0 --- 0.00 29.745
05/04/2006 1:40 a 59.4 59.4 59.4 59.5 59.3 75 51.5 0.0 0.0 --- 0.00 29.745
05/04/2006 1:50 a 59.3 59.3 59.3 59.4 59.2 76 51.7 0.0 0.0 --- 0.00 29.746
05/04/2006 2:00 a 59.2 59.2 59.2 59.3 59.1 76 51.6 0.0 0.0 --- 0.00 29.743
05/04/2006 2:10 a 59.0 59.0 59.0 59.1 58.9 77 51.8 0.0 0.0 --- 0.00 29.742
05/04/2006 2:20 a 58.8 58.8 58.8 58.9 58.7 78 52.0 0.0 0.0 --- 0.00 29.736
05/04/2006 2:30 a 58.6 58.6 58.6 58.7 58.5 76 51.1 0.0 0.0 --- 0.00 29.741
05/04/2006 2:40 a 58.4 58.4 58.4 58.5 58.3 77 51.2 0.0 0.0 --- 0.00 29.745
05/04/2006 2:50 a 58.2 58.2 58.2 58.3 58.1 76 50.7 0.0 0.0 --- 0.00 29.746
05/04/2006 3:00 a 58.0 58.0 58.0 58.1 57.9 77 50.8 0.0 0.0 --- 0.00 29.746
05/04/2006 3:10 a 57.7 57.7 57.7 57.9 57.5 79 51.2 0.0 0.0 --- 0.00 29.754
05/04/2006 3:20 a 57.2 57.2 57.2 57.5 56.8 80 51.1 0.0 0.0 --- 0.00 29.752
05/04/2006 3:30 a 56.5 56.5 56.5 56.9 56.3 82 51.1 0.0 0.0 --- 0.00 29.759
05/04/2006 3:40 a 56.1 56.1 56.1 56.3 55.9 83 51.0 0.0 0.0 --- 0.00 29.763
05/04/2006 3:50 a 55.8 55.8 55.8 55.9 55.8 83 50.7 0.0 0.0 --- 0.00 29.764
05/04/2006 4:00 a 55.8 55.8 55.8 55.8 55.7 83 50.7 0.0 0.0 --- 0.00 29.766
05/04/2006 4:10 a 55.7 55.7 55.7 55.8 55.7 84 50.9 0.0 0.0 --- 0.00 29.768
05/04/2006 4:20 a 55.5 55.5 55.5 55.7 55.3 83 50.4 0.0 0.0 --- 0.00 29.768
05/04/2006 4:30 a 55.2 55.2 55.2 55.3 55.0 84 50.5 0.0 0.0 --- 0.00 29.770
05/04/2006 4:40 a 54.6 54.6 54.6 55.0 54.3 85 50.2 0.0 0.0 --- 0.00 29.777
05/04/2006 4:50 a 54.0 54.0 54.0 54.3 53.9 86 49.9 0.0 0.0 --- 0.00 29.778
05/04/2006 5:00 a 53.8 53.8 53.8 53.9 53.7 89 50.6 0.0 0.0 --- 0.00 29.774
05/04/2006 5:10 a 53.7 53.7 53.7 53.9 53.3 86 49.6 0.0 0.0 --- 0.00 29.777
05/04/2006 5:20 a 53.1 53.1 53.1 53.3 53.0 89 49.9 0.0 0.0 --- 0.00 29.776
05/04/2006 5:30 a 53.1 53.1 53.1 53.2 53.0 88 49.6 0.0 0.0 --- 0.00 29.779
05/04/2006 5:40 a 53.0 53.0 53.0 53.2 52.7 87 49.2 0.0 0.0 --- 0.00 29.778
05/04/2006 5:50 a 52.4 52.4 52.4 52.7 52.0 88 49.0 0.0 0.0 --- 0.00 29.782
05/04/2006 6:00 a 51.8 51.8 51.8 52.1 51.6 90 49.0 0.0 0.0 --- 0.00 29.785
05/04/2006 6:10 a 51.6 51.6 51.6 51.6 51.5 90 48.8 0.0 0.0 --- 0.00 29.785
05/04/2006 6:20 a 51.5 51.5 51.5 51.6 51.5 90 48.7 0.0 0.0 --- 0.00 29.788
05/04/2006 6:30 a 51.6 51.6 51.6 51.6 51.5 91 49.1 0.0 0.0 --- 0.00 29.793
05/04/2006 6:40 a 51.6 51.6 51.6 51.7 51.6 92 49.4 0.0 0.0 --- 0.00 29.794
05/04/2006 6:50 a 51.8 51.8 51.8 51.9 51.7 92 49.6 0.0 0.0 --- 0.00 29.794
05/04/2006 7:00 a 52.1 52.1 52.1 52.3 51.9 94 50.4 0.0 0.0 --- 0.00 29.793
05/04/2006 7:10 a 52.4 52.4 52.4 52.6 52.3 93 50.4 0.0 0.0 --- 0.00 29.798
05/04/2006 7:20 a 52.9 52.9 52.9 53.3 52.6 92 50.6 0.0 0.0 --- 0.00 29.800
05/04/2006 7:30 a 53.7 53.7 53.7 54.2 53.3 89 50.5 0.0 0.0 --- 0.00 29.799
05/04/2006 7:40 a 54.7 54.7 54.7 55.4 54.2 86 50.6 0.0 1.0 --- 0.00 29.800
05/04/2006 7:50 a 56.0 56.0 56.0 56.7 55.4 82 50.6 0.0 0.0 --- 0.00 29.796
05/04/2006 8:00 a 57.2 57.2 57.2 57.7 56.7 78 50.4 0.0 2.0 WSW 0.00 29.794
05/04/2006 8:10 a 58.0 58.0 58.0 58.4 57.7 76 50.5 0.0 1.0 WSW 0.00 29.795
05/04/2006 8:20 a 58.6 58.6 58.6 58.9 58.3 75 50.7 0.0 1.0 --- 0.00 29.796
05/04/2006 8:30 a 59.2 59.2 59.2 59.6 58.9 73 50.6 0.0 2.0 WSW 0.00 29.793
05/04/2006 8:40 a 60.0 60.0 60.0 60.3 59.6 72 51.0 0.0 1.0 WSW 0.00 29.793
05/04/2006 8:50 a 60.8 60.8 60.8 61.4 60.4 72 51.7 0.0 2.0 WSW 0.00 29.791
05/04/2006 9:00 a 61.9 61.9 61.9 62.5 61.4 68 51.2 0.0 0.0 --- 0.00 29.787
05/04/2006 9:10 a 63.2 63.2 63.2 63.8 62.6 66 51.7 0.0 3.0 ESE 0.00 29.785
05/04/2006 9:20 a 64.3 64.3 64.3 64.8 63.8 63 51.5 0.0 3.0 ESE 0.00 29.782
05/04/2006 9:30 a 65.2 65.2 65.2 65.6 64.8 61 51.4 1.0 4.0 SE 0.00 29.780
05/04/2006 9:40 a 65.7 65.7 65.7 66.0 65.6 61 51.9 0.0 5.0 E 0.00 29.777
05/04/2006 9:50 a 66.3 66.3 66.3 66.5 66.0 59 51.6 0.0 3.0 E 0.00 29.773
05/04/2006 10:00 a 66.8 66.8 66.8 67.2 66.5 59 52.0 0.0 1.0 N 0.00 29.773
05/04/2006 10:10 a 67.5 67.5 67.5 67.8 67.2 58 52.2 0.0 3.0 WNW 0.00 29.769
05/04/2006 10:20 a 67.0 68.1 68.1 68.5 67.8 55 51.3 0.0 2.0 WNW 0.00 29.763
05/04/2006 10:30 a 67.4 68.8 68.8 69.2 68.5 52 50.5 0.0 4.0 ENE 0.00 29.757
05/04/2006 10:40 a 67.0 69.3 69.3 69.5 69.1 50 49.9 1.0 3.0 ENE 0.00 29.757
05/04/2006 10:50 a 68.0 69.7 69.7 69.8 69.5 49 49.7 0.0 3.0 S 0.00 29.750
05/04/2006 11:00 a 68.0 70.0 70.0 70.3 69.8 47 48.9 1.0 4.0 E 0.00 29.748
05/04/2006 11:10 a 69.0 70.6 70.6 70.9 70.3 46 48.8 1.0 5.0 E 0.00 29.745
05/04/2006 11:20 a 69.0 71.1 71.1 71.4 70.8 43 47.5 1.0 4.0 ENE 0.00 29.735
05/04/2006 11:30 a 70.1 71.9 71.9 72.4 71.4 41 46.9 1.0 4.0 ENE 0.00 29.736
05/04/2006 11:40 a 71.0 72.6 72.6 72.8 72.4 40 46.9 1.0 5.0 E 0.00 29.737
05/04/2006 11:50 a 71.4 72.9 72.9 73.1 72.7 42 48.5 0.0 3.0 E 0.00 29.734
05/04/2006 12:00 p 72.0 73.5 73.5 74.0 73.1 37 45.7 1.0 7.0 E 0.00 29.730
05/04/2006 12:10 p 72.0 74.3 74.3 74.6 74.0 34 44.1 2.0 7.0 E 0.00 29.725
05/04/2006 12:20 p 73.0 75.1 75.1 75.4 74.6 33 44.1 1.0 4.0 E 0.00 29.719
05/04/2006 12:30 p 74.0 75.8 75.8 76.3 75.4 33 44.7 1.0 5.0 E 0.00 29.715
05/04/2006 12:40 p 75.0 76.8 76.8 77.4 76.3 33 45.5 0.0 3.0 N 0.00 29.704
05/04/2006 12:50 p 76.0 77.8 77.8 78.0 77.4 30 43.9 1.0 5.0 E 0.00 29.695
05/04/2006 1:00 p 76.2 78.2 78.2 78.3 77.9 32 46.0 0.0 4.0 E 0.00 29.690
05/04/2006 1:10 p 76.2 78.4 78.4 78.5 78.2 32 46.1 0.0 3.0 NW 0.00 29.683
05/04/2006 1:20 p 77.2 78.6 78.6 78.7 78.4 31 45.5 1.0 3.0 NW 0.00 29.680
05/04/2006 1:30 p 77.0 78.6 78.6 79.0 78.4 27 41.9 0.0 4.0 NW 0.00 29.669
05/04/2006 1:40 p 78.0 79.6 79.6 80.2 79.0 27 42.7 0.0 3.0 E 0.00 29.662
05/04/2006 1:50 p 79.0 80.5 80.5 80.8 80.2 27 43.5 1.0 4.0 SE 0.00 29.658
05/04/2006 2:00 p 79.0 80.7 80.7 80.8 80.5 25 41.6 1.0 5.0 ESE 0.00 29.656
05/04/2006 2:10 p 79.0 80.6 80.6 80.8 80.5 28 44.5 1.0 3.0 E 0.00 29.654
05/04/2006 2:20 p 79.0 80.8 80.8 80.9 80.7 27 43.7 0.0 2.0 SW 0.00 29.657
05/04/2006 2:30 p 79.0 80.7 80.7 80.8 80.5 27 43.6 1.0 8.0 E 0.00 29.654
05/04/2006 2:40 p 79.0 80.8 80.8 80.9 80.8 27 43.7 0.0 2.0 ESE 0.00 29.655
05/04/2006 2:50 p 79.0 80.8 80.8 80.9 80.7 25 41.7 1.0 4.0 ESE 0.00 29.648
05/04/2006 3:00 p 79.0 81.0 81.0 81.1 80.8 23 39.8 1.0 6.0 E 0.00 29.647
05/04/2006 3:10 p 79.0 81.0 81.0 81.3 80.8 25 41.9 1.0 3.0 E 0.00 29.642
05/04/2006 3:20 p 80.0 81.5 81.5 81.6 81.3 23 40.2 0.0 4.0 E 0.00 29.642
05/04/2006 3:30 p 80.0 81.6 81.6 81.7 81.5 27 44.4 1.0 4.0 ENE 0.00 29.637
05/04/2006 3:40 p 80.0 81.9 81.9 82.1 81.7 27 44.7 0.0 2.0 E 0.00 29.627
05/04/2006 3:50 p 80.0 82.2 82.2 82.3 82.1 25 42.9 0.0 1.0 SSW 0.00 29.621
05/04/2006 4:00 p 81.0 82.5 82.5 82.6 82.3 26 44.2 1.0 4.0 NW 0.00 29.611
05/04/2006 4:10 p 80.0 82.4 82.4 82.5 82.3 25 43.1 0.0 3.0 ENE 0.00 29.610
05/04/2006 4:20 p 80.0 81.8 81.8 82.2 81.2 27 44.6 0.0 2.0 WNW 0.00 29.609
05/04/2006 4:30 p 79.0 81.1 81.1 81.3 80.9 27 44.0 0.0 3.0 WNW 0.00 29.612
05/04/2006 4:40 p 79.0 81.1 81.1 81.2 81.0 26 43.0 1.0 3.0 WNW 0.00 29.607
05/04/2006 4:50 p 79.0 81.1 81.1 81.1 81.0 26 43.0 0.0 3.0 NNE 0.00 29.606
05/04/2006 5:00 p 79.0 81.1 81.1 81.1 81.0 26 43.0 0.0 3.0 WNW 0.00 29.603
05/04/2006 5:10 p 79.0 81.0 81.0 81.1 81.0 25 41.9 1.0 4.0 SE 0.00 29.601
05/04/2006 5:20 p 79.0 81.1 81.1 81.2 81.0 25 42.0 0.0 2.0 SE 0.00 29.602
05/04/2006 5:30 p 79.0 81.0 81.0 81.0 80.8 24 40.8 0.0 2.0 SE 0.00 29.598
05/04/2006 5:40 p 79.0 80.8 80.8 80.8 80.7 24 40.7 0.0 4.0 SE 0.00 29.600
05/04/2006 5:50 p 79.0 80.5 80.5 80.7 80.4 24 40.4 0.0 2.0 NE 0.00 29.599
05/04/2006 6:00 p 78.0 80.4 80.4 80.5 80.4 23 39.2 1.0 5.0 NE 0.00 29.595
05/04/2006 6:10 p 78.0 80.4 80.4 80.5 80.2 25 41.4 1.0 4.0 SSE 0.00 29.596
05/04/2006 6:20 p 78.0 79.9 79.9 80.2 79.6 26 42.0 0.0 3.0 SE 0.00 29.599
05/04/2006 6:30 p 77.0 79.4 79.4 79.7 79.3 26 41.6 0.0 2.0 SE 0.00 29.599
05/04/2006 6:40 p 77.0 79.0 79.0 79.3 78.7 27 42.2 0.0 2.0 SE 0.00 29.598
05/04/2006 6:50 p 77.0 78.5 78.5 78.7 78.3 27 41.8 0.0 1.0 SE 0.00 29.596
05/04/2006 7:00 p 76.0 78.1 78.1 78.3 77.8 27 41.4 0.0 0.0 --- 0.00 29.598
05/04/2006 7:10 p 75.0 77.4 77.4 77.8 77.0 28 41.8 0.0 0.0 --- 0.00 29.599
05/04/2006 7:20 p 75.0 76.6 76.6 77.0 76.2 30 42.9 0.0 0.0 --- 0.00 29.599
05/04/2006 7:30 p 74.0 75.9 75.9 76.2 75.5 31 43.1 0.0 0.0 --- 0.00 29.604
05/04/2006 7:40 p 73.0 75.1 75.1 75.5 74.6 33 44.1 0.0 0.0 --- 0.00 29.604
05/04/2006 7:50 p 72.0 74.2 74.2 74.6 73.8 33 43.3 0.0 0.0 --- 0.00 29.609
05/04/2006 8:00 p 71.0 73.3 73.3 73.8 72.9 34 43.3 0.0 0.0 --- 0.00 29.608
05/04/2006 8:10 p 71.0 72.5 72.5 72.9 72.1 35 43.3 0.0 0.0 --- 0.00 29.610
05/04/2006 8:20 p 69.8 71.7 71.7 72.1 71.3 38 44.8 0.0 0.0 --- 0.00 29.611
05/04/2006 8:30 p 69.0 70.7 70.7 71.3 70.1 40 45.2 0.0 0.0 --- 0.00 29.616
05/04/2006 8:40 p 68.0 69.6 69.6 70.1 69.1 42 45.5 0.0 0.0 --- 0.00 29.618
05/04/2006 8:50 p 67.0 68.7 68.7 69.1 68.4 46 47.1 0.0 0.0 --- 0.00 29.616
05/04/2006 9:00 p 66.0 68.0 68.0 68.4 67.5 44 45.3 0.0 0.0 --- 0.00 29.620
05/04/2006 9:10 p 67.2 67.2 67.2 67.5 66.9 47 46.3 0.0 0.0 --- 0.00 29.624
05/04/2006 9:20 p 66.7 66.7 66.7 66.9 66.4 49 47.0 0.0 0.0 --- 0.00 29.627
05/04/2006 9:30 p 66.2 66.2 66.2 66.4 65.9 50 47.0 0.0 0.0 --- 0.00 29.624
05/04/2006 9:40 p 65.7 65.7 65.7 65.9 65.4 52 47.6 0.0 0.0 --- 0.00 29.625
05/04/2006 9:50 p 65.2 65.2 65.2 65.4 64.9 53 47.7 0.0 0.0 --- 0.00 29.625
05/04/2006 10:00 p 64.7 64.7 64.7 65.0 64.5 56 48.7 0.0 0.0 --- 0.00 29.628
05/04/2006 10:10 p 64.2 64.2 64.2 64.5 63.9 56 48.2 0.0 0.0 --- 0.00 29.628
05/04/2006 10:20 p 63.5 63.5 63.5 63.9 63.2 58 48.5 0.0 0.0 --- 0.00 29.627
05/04/2006 10:30 p 62.8 62.8 62.8 63.2 62.5 60 48.7 0.0 0.0 --- 0.00 29.626
05/04/2006 10:40 p 62.1 62.1 62.1 62.5 61.8 62 48.9 0.0 0.0 --- 0.00 29.624
05/04/2006 10:50 p 61.6 61.6 61.6 61.8 61.3 64 49.3 0.0 0.0 --- 0.00 29.624
05/04/2006 11:00 p 61.1 61.1 61.1 61.3 60.9 65 49.3 0.0 0.0 --- 0.00 29.623
05/04/2006 11:10 p 60.7 60.7 60.7 60.9 60.4 68 50.1 0.0 0.0 --- 0.00 29.621
05/04/2006 11:20 p 60.1 60.1 60.1 60.4 59.9 68 49.5 0.0 0.0 --- 0.00 29.619
05/04/2006 11:30 p 59.7 59.7 59.7 59.9 59.6 70 49.9 0.0 0.0 --- 0.00 29.614
05/04/2006 11:40 p 59.5 59.5 59.5 59.6 59.3 69 49.3 0.0 0.0 --- 0.00 29.612
05/04/2006 11:50 p 59.2 59.2 59.2 59.3 59.1 69 49.0 0.0 0.0 --- 0.00 29.614
05/05/2006 12:00 a 58.9 58.9 58.9 59.1 58.8 70 49.1 0.0 0.0 --- 0.00 29.615
05/05/2006 12:10 a 58.7 58.7 58.7 58.8 58.5 71 49.3 0.0 0.0 --- 0.00 29.612
05/05/2006 12:20 a 58.4 58.4 58.4 58.5 58.3 71 49.0 0.0 0.0 --- 0.00 29.610
05/05/2006 12:30 a 58.3 58.3 58.3 58.4 58.2 73 49.7 0.0 0.0 --- 0.00 29.609
05/05/2006 12:40 a 58.1 58.1 58.1 58.2 58.0 73 49.5 0.0 0.0 --- 0.00 29.610
05/05/2006 12:50 a 57.9 57.9 57.9 58.0 57.8 72 48.9 0.0 0.0 --- 0.00 29.609
05/05/2006 1:00 a 57.7 57.7 57.7 57.8 57.7 73 49.1 0.0 0.0 --- 0.00 29.608
05/05/2006 1:10 a 57.7 57.7 57.7 57.7 57.7 73 49.1 0.0 0.0 --- 0.00 29.602
05/05/2006 1:20 a 57.6 57.6 57.6 57.7 57.6 73 49.0 0.0 0.0 --- 0.00 29.603
05/05/2006 1:30 a 57.6 57.6 57.6 57.6 57.5 72 48.7 0.0 0.0 --- 0.00 29.599
05/05/2006 1:40 a 57.6 57.6 57.6 57.6 57.5 72 48.7 0.0 0.0 --- 0.00 29.599
05/05/2006 1:50 a 57.5 57.5 57.5 57.6 57.5 71 48.2 0.0 0.0 --- 0.00 29.601
05/05/2006 2:00 a 57.5 57.5 57.5 57.6 57.4 70 47.8 0.0 0.0 --- 0.00 29.598
05/05/2006 2:10 a 57.4 57.4 57.4 57.5 57.4 69 47.3 0.0 0.0 --- 0.00 29.592
05/05/2006 2:20 a 57.3 57.3 57.3 57.4 57.3 69 47.2 0.0 0.0 --- 0.00 29.591
05/05/2006 2:30 a 57.3 57.3 57.3 57.3 57.3 71 48.0 0.0 0.0 --- 0.00 29.591
05/05/2006 2:40 a 57.3 57.3 57.3 57.3 57.2 72 48.4 0.0 0.0 --- 0.00 29.595
05/05/2006 2:50 a 57.4 57.4 57.4 57.4 57.3 72 48.5 0.0 0.0 --- 0.00 29.591
05/05/2006 3:00 a 57.3 57.3 57.3 57.4 57.2 71 48.0 0.0 0.0 --- 0.00 29.594
05/05/2006 3:10 a 57.2 57.2 57.2 57.3 57.2 72 48.3 0.0 0.0 --- 0.00 29.596
05/05/2006 3:20 a 57.2 57.2 57.2 57.2 57.2 69 47.1 0.0 0.0 --- 0.00 29.595
05/05/2006 3:30 a 57.2 57.2 57.2 57.3 57.2 69 47.1 0.0 0.0 --- 0.00 29.594
05/05/2006 3:40 a 57.2 57.2 57.2 57.3 57.2 72 48.3 0.0 0.0 --- 0.00 29.594
05/05/2006 3:50 a 57.0 57.0 57.0 57.2 56.8 71 47.7 0.0 0.0 --- 0.00 29.598
05/05/2006 4:00 a 56.6 56.6 56.6 56.8 56.4 72 47.7 0.0 0.0 --- 0.00 29.599
05/05/2006 4:10 a 56.3 56.3 56.3 56.4 56.1 74 48.1 0.0 0.0 --- 0.00 29.597
05/05/2006 4:20 a 56.1 56.1 56.1 56.1 55.9 74 47.9 0.0 0.0 --- 0.00 29.600
05/05/2006 4:30 a 55.9 55.9 55.9 56.0 55.8 75 48.1 0.0 0.0 --- 0.00 29.601
05/05/2006 4:40 a 55.7 55.7 55.7 55.8 55.6 75 47.9 0.0 0.0 --- 0.00 29.606
05/05/2006 4:50 a 55.5 55.5 55.5 55.7 55.5 76 48.1 0.0 0.0 --- 0.00 29.610
05/05/2006 5:00 a 55.4 55.4 55.4 55.5 55.3 75 47.6 0.0 0.0 --- 0.00 29.612
05/05/2006 5:10 a 55.2 55.2 55.2 55.3 55.1 76 47.8 0.0 0.0 --- 0.00 29.613
05/05/2006 5:20 a 55.2 55.2 55.2 55.5 55.1 76 47.8 0.0 0.0 --- 0.00 29.614
05/05/2006 5:30 a 55.6 55.6 55.6 55.7 55.5 78 48.9 0.0 0.0 --- 0.00 29.623
05/05/2006 5:40 a 55.6 55.6 55.6 55.7 55.5 78 48.9 0.0 0.0 --- 0.00 29.627
05/05/2006 5:50 a 55.4 55.4 55.4 55.5 55.3 78 48.7 0.0 0.0 --- 0.00 29.630
05/05/2006 6:00 a 55.4 55.4 55.4 55.5 55.3 78 48.7 0.0 0.0 --- 0.00 29.629
05/05/2006 6:10 a 55.7 55.7 55.7 55.9 55.5 78 49.0 0.0 0.0 --- 0.00 29.632
05/05/2006 6:20 a 56.1 56.1 56.1 56.2 55.9 78 49.3 0.0 0.0 --- 0.00 29.638
05/05/2006 6:30 a 56.2 56.2 56.2 56.2 56.2 78 49.4 0.0 0.0 --- 0.00 29.643
05/05/2006 6:40 a 56.2 56.2 56.2 56.3 56.2 79 49.8 0.0 0.0 --- 0.00 29.647
05/05/2006 6:50 a 56.3 56.3 56.3 56.4 56.2 79 49.9 0.0 0.0 --- 0.00 29.654
05/05/2006 7:00 a 56.6 56.6 56.6 56.8 56.4 80 50.5 0.0 0.0 --- 0.00 29.658
05/05/2006 7:10 a 56.9 56.9 56.9 57.1 56.8 80 50.8 0.0 0.0 --- 0.00 29.662
05/05/2006 7:20 a 57.4 57.4 57.4 57.7 57.1 80 51.3 0.0 0.0 --- 0.00 29.665
05/05/2006 7:30 a 58.0 58.0 58.0 58.2 57.7 80 51.9 0.0 0.0 --- 0.00 29.666
05/05/2006 7:40 a 58.7 58.7 58.7 59.1 58.3 80 52.6 0.0 0.0 --- 0.00 29.670
05/05/2006 7:50 a 59.4 59.4 59.4 59.8 59.0 78 52.5 0.0 0.0 --- 0.00 29.667
05/05/2006 8:00 a 60.4 60.4 60.4 61.0 59.9 79 53.9 0.0 3.0 SE 0.00 29.675
05/05/2006 8:10 a 62.1 62.1 62.1 63.5 61.0 73 53.4 1.0 5.0 E 0.00 29.670
05/05/2006 8:20 a 64.8 64.8 64.8 65.9 63.5 68 54.0 0.0 2.0 E 0.00 29.668
05/05/2006 8:30 a 66.4 66.4 66.4 66.8 65.9 66 54.7 0.0 2.0 E 0.00 29.668
05/05/2006 8:40 a 67.1 67.1 67.1 67.3 66.8 63 54.1 1.0 4.0 E 0.00 29.670
05/05/2006 8:50 a 67.5 67.5 67.5 67.7 67.3 63 54.5 1.0 5.0 E 0.00 29.670
05/05/2006 9:00 a 67.9 67.9 67.9 68.0 67.7 61 54.0 0.0 3.0 ESE 0.00 29.668
05/05/2006 9:10 a 68.0 68.2 68.2 68.5 68.0 61 54.3 0.0 2.0 ESE 0.00 29.663
05/05/2006 9:20 a 69.0 68.7 68.7 69.0 68.5 60 54.3 0.0 4.0 ESE 0.00 29.662
05/05/2006 9:30 a 68.8 69.2 69.2 69.5 69.0 59 54.3 0.0 2.0 ESE 0.00 29.665
05/05/2006 9:40 a 69.2 69.8 69.8 70.0 69.5 56 53.4 0.0 1.0 ESE 0.00 29.664
05/05/2006 9:50 a 69.0 70.2 70.2 70.4 70.0 55 53.3 0.0 2.0 ESE 0.00 29.669
05/05/2006 10:00 a 69.6 70.7 70.7 70.9 70.4 53 52.7 1.0 4.0 E 0.00 29.670
05/05/2006 10:10 a 69.0 71.0 71.0 71.1 70.9 50 51.4 1.0 4.0 E 0.00 29.670
05/05/2006 10:20 a 69.0 71.1 71.1 71.2 71.1 49 51.0 1.0 6.0 E 0.00 29.678
05/05/2006 10:30 a 69.0 71.3 71.3 71.3 71.2 47 50.1 1.0 4.0 E 0.00 29.672
05/05/2006 10:40 a 69.0 71.3 71.3 71.3 71.2 47 50.1 1.0 3.0 ESE 0.00 29.670
05/05/2006 10:50 a 69.0 71.3 71.3 71.4 71.2 47 50.1 0.0 1.0 ESE 0.00 29.667
05/05/2006 11:00 a 70.4 71.6 71.6 71.7 71.4 44 48.6 1.0 5.0 E 0.00 29.674
05/05/2006 11:10 a 70.4 71.8 71.8 71.9 71.7 44 48.7 1.0 8.0 E 0.00 29.671
05/05/2006 11:20 a 70.1 72.1 72.1 72.4 71.9 41 47.1 1.0 4.0 E 0.00 29.675
05/05/2006 11:30 a 71.2 72.6 72.6 72.7 72.4 41 47.6 0.0 3.0 E 0.00 29.670
05/05/2006 11:40 a 71.4 72.8 72.8 72.9 72.7 42 48.4 1.0 4.0 E 0.00 29.667
05/05/2006 11:50 a 71.2 73.1 73.1 73.3 72.9 41 48.0 0.0 2.0 E 0.00 29.666
05/05/2006 12:00 p 72.0 73.5 73.5 73.7 73.3 39 47.1 1.0 5.0 E 0.00 29.664
05/05/2006 12:10 p 72.0 73.7 73.7 73.9 73.6 38 46.5 1.0 7.0 E 0.00 29.660
05/05/2006 12:20 p 72.0 74.2 74.2 74.4 73.9 37 46.3 1.0 4.0 E 0.00 29.656
05/05/2006 12:30 p 73.0 74.5 74.5 74.6 74.4 40 48.6 1.0 4.0 E 0.00 29.651
05/05/2006 12:40 p 73.0 74.8 74.8 75.0 74.5 36 46.1 0.0 3.0 NNE 0.00 29.644
05/05/2006 12:50 p 74.0 75.5 75.5 76.0 75.0 37 47.4 0.0 3.0 SE 0.00 29.640
05/05/2006 1:00 p 74.0 76.4 76.4 76.7 76.0 35 46.8 0.0 3.0 SE 0.00 29.638
05/05/2006 1:10 p 75.0 76.7 76.7 76.8 76.6 36 47.8 1.0 4.0 ESE 0.00 29.634
05/05/2006 1:20 p 75.0 77.0 77.0 77.2 76.8 36 48.0 0.0 3.0 SSW 0.00 29.633
05/05/2006 1:30 p 75.0 77.4 77.4 77.4 77.2 33 46.1 1.0 3.0 SSE 0.00 29.631
05/05/2006 1:40 p 76.4 77.5 77.5 77.8 77.4 34 47.0 0.0 3.0 S 0.00 29.623
05/05/2006 1:50 p 76.3 77.8 77.8 77.9 77.7 33 46.4 1.0 5.0 SE 0.00 29.627
05/05/2006 2:00 p 76.5 77.6 77.6 77.9 77.4 35 47.8 0.0 5.0 NE 0.00 29.626
05/05/2006 2:10 p 76.3 77.6 77.6 77.9 77.4 33 46.2 1.0 4.0 ENE 0.00 29.619
05/05/2006 2:20 p 76.1 78.1 78.1 78.3 77.9 31 45.0 1.0 5.0 E 0.00 29.620
05/05/2006 2:30 p 76.3 78.0 78.0 78.2 77.9 33 46.6 1.0 4.0 E 0.00 29.619
05/05/2006 2:40 p 76.2 78.0 78.0 78.0 77.8 32 45.8 1.0 5.0 E 0.00 29.616
05/05/2006 2:50 p 76.3 77.5 77.5 77.8 77.2 33 46.2 0.0 4.0 E 0.00 29.610
05/05/2006 3:00 p 75.0 77.0 77.0 77.2 77.0 35 47.3 1.0 4.0 NE 0.00 29.609
05/05/2006 3:10 p 75.0 77.2 77.2 77.3 77.0 33 45.9 0.0 2.0 NNE 0.00 29.609
05/05/2006 3:20 p 76.1 77.5 77.5 77.5 77.3 31 44.5 1.0 4.0 NE 0.00 29.607
05/05/2006 3:30 p 75.0 77.4 77.4 77.5 77.3 34 46.9 0.0 4.0 N 0.00 29.604
05/05/2006 3:40 p 75.0 77.4 77.4 77.5 77.3 34 46.9 0.0 3.0 NE 0.00 29.602
05/05/2006 3:50 p 76.3 77.5 77.5 77.5 77.4 33 46.2 0.0 5.0 N 0.00 29.601
05/05/2006 4:00 p 75.0 77.3 77.3 77.4 77.1 33 46.0 0.0 2.0 E 0.00 29.603
05/05/2006 4:10 p 75.0 77.0 77.0 77.1 76.8 31 44.1 0.0 2.0 NNE 0.00 29.601
05/05/2006 4:20 p 75.0 76.9 76.9 77.0 76.8 31 44.0 0.0 4.0 E 0.00 29.599
05/05/2006 4:30 p 75.0 77.0 77.0 77.0 76.9 31 44.1 0.0 3.0 E 0.00 29.598
05/05/2006 4:40 p 75.0 76.9 76.9 77.0 76.8 30 43.1 1.0 4.0 ESE 0.00 29.601
05/05/2006 4:50 p 75.0 76.7 76.7 76.9 76.6 32 44.7 1.0 4.0 NE 0.00 29.597
05/05/2006 5:00 p 75.0 76.5 76.5 76.6 76.5 33 45.3 0.0 2.0 NW 0.00 29.598
05/05/2006 5:10 p 75.0 76.5 76.5 76.5 76.5 32 44.5 0.0 3.0 NW 0.00 29.592
05/05/2006 5:20 p 75.0 76.6 76.6 76.6 76.5 33 45.4 0.0 2.0 NNE 0.00 29.591
05/05/2006 5:30 p 75.0 76.5 76.5 76.6 76.4 33 45.3 0.0 2.0 N 0.00 29.591
05/05/2006 5:40 p 74.0 76.3 76.3 76.4 76.2 33 45.1 0.0 2.0 N 0.00 29.587
05/05/2006 5:50 p 74.0 76.0 76.0 76.2 75.9 32 44.0 0.0 1.0 --- 0.00 29.587
05/05/2006 6:00 p 74.0 76.0 76.0 76.0 75.9 31 43.2 0.0 3.0 ENE 0.00 29.586
05/05/2006 6:10 p 74.0 75.8 75.8 75.9 75.6 31 43.0 0.0 1.0 ENE 0.00 29.589
05/05/2006 6:20 p 74.0 75.5 75.5 75.6 75.3 31 42.8 0.0 2.0 N 0.00 29.587
05/05/2006 6:30 p 73.0 75.1 75.1 75.3 74.9 33 44.1 0.0 0.0 --- 0.00 29.589
05/05/2006 6:40 p 73.0 74.6 74.6 74.9 74.2 32 42.8 0.0 0.0 --- 0.00 29.584
05/05/2006 6:50 p 72.0 74.0 74.0 74.3 73.7 33 43.1 0.0 0.0 --- 0.00 29.583
05/05/2006 7:00 p 72.0 73.5 73.5 73.7 73.2 33 42.7 0.0 0.0 --- 0.00 29.585
05/05/2006 7:10 p 71.0 73.0 73.0 73.2 72.8 33 42.2 0.0 0.0 --- 0.00 29.590
05/05/2006 7:20 p 71.0 72.7 72.7 72.8 72.5 35 43.5 0.0 0.0 --- 0.00 29.592
05/05/2006 7:30 p 69.6 72.2 72.2 72.5 72.0 36 43.8 0.0 0.0 --- 0.00 29.594
05/05/2006 7:40 p 69.5 71.7 71.7 72.0 71.5 35 42.6 0.0 0.0 --- 0.00 29.593
05/05/2006 7:50 p 68.0 71.1 71.1 71.5 70.7 35 42.1 0.0 0.0 --- 0.00 29.591
05/05/2006 8:00 p 68.0 70.4 70.4 70.7 70.0 42 46.2 0.0 0.0 --- 0.00 29.597
05/05/2006 8:10 p 66.8 69.4 69.4 70.0 68.9 39 43.4 0.0 0.0 --- 0.00 29.599
05/05/2006 8:20 p 66.0 68.4 68.4 68.9 68.0 41 43.8 0.0 0.0 --- 0.00 29.603
05/05/2006 8:30 p 67.5 67.5 67.5 68.0 67.1 44 44.8 0.0 0.0 --- 0.00 29.605
05/05/2006 8:40 p 66.7 66.7 66.7 67.1 66.4 46 45.3 0.0 0.0 --- 0.00 29.611
05/05/2006 8:50 p 66.2 66.2 66.2 66.4 65.9 47 45.4 0.0 0.0 --- 0.00 29.611
05/05/2006 9:00 p 65.6 65.6 65.6 66.0 65.2 49 45.9 0.0 0.0 --- 0.00 29.612
05/05/2006 9:10 p 65.0 65.0 65.0 65.2 64.7 51 46.5 0.0 0.0 --- 0.00 29.616
05/05/2006 9:20 p 64.4 64.4 64.4 64.7 64.1 58 49.3 0.0 0.0 --- 0.00 29.620
05/05/2006 9:30 p 64.1 64.1 64.1 64.2 64.0 55 47.6 0.0 0.0 --- 0.00 29.624
05/05/2006 9:40 p 63.8 63.8 63.8 64.0 63.5 55 47.3 0.0 0.0 --- 0.00 29.623
05/05/2006 9:50 p 63.2 63.2 63.2 63.5 63.0 57 47.7 0.0 0.0 --- 0.00 29.629
05/05/2006 10:00 p 62.7 62.7 62.7 63.0 62.4 58 47.7 0.0 0.0 --- 0.00 29.631
05/05/2006 10:10 p 62.1 62.1 62.1 62.4 61.9 59 47.6 0.0 0.0 --- 0.00 29.631
05/05/2006 10:20 p 61.8 61.8 61.8 61.9 61.7 60 47.8 0.0 0.0 --- 0.00 29.634
05/05/2006 10:30 p 61.7 61.7 61.7 61.8 61.7 62 48.6 0.0 0.0 --- 0.00 29.632
05/05/2006 10:40 p 61.9 61.9 61.9 62.0 61.8 63 49.2 0.0 0.0 --- 0.00 29.637
05/05/2006 10:50 p 61.9 61.9 61.9 62.0 61.9 63 49.2 0.0 0.0 --- 0.00 29.639
05/05/2006 11:00 p 61.8 61.8 61.8 61.9 61.8 63 49.1 0.0 0.0 --- 0.00 29.642
05/05/2006 11:10 p 61.7 61.7 61.7 61.8 61.6 63 49.0 0.0 0.0 --- 0.00 29.643
05/05/2006 11:20 p 61.5 61.5 61.5 61.7 61.4 64 49.2 0.0 0.0 --- 0.00 29.639
05/05/2006 11:30 p 61.4 61.4 61.4 61.4 61.3 63 48.7 0.0 0.0 --- 0.00 29.644
05/05/2006 11:40 p 61.3 61.3 61.3 61.3 61.2 62 48.2 0.0 0.0 --- 0.00 29.646
05/05/2006 11:50 p 61.0 61.0 61.0 61.2 60.9 62 47.9 0.0 0.0 --- 0.00 29.645
05/06/2006 12:00 a 61.1 61.1 61.1 61.6 60.8 52 43.4 0.0 0.0 --- 0.00 29.640
05/06/2006 12:10 a 62.2 62.2 62.2 62.8 61.6 50 43.4 0.0 0.0 --- 0.00 29.639
05/06/2006 12:20 a 63.0 63.0 63.0 63.3 62.8 48 43.0 0.0 0.0 --- 0.00 29.639
05/06/2006 12:30 a 63.5 63.5 63.5 63.7 63.2 48 43.5 0.0 0.0 --- 0.00 29.635
05/06/2006 12:40 a 63.7 63.7 63.7 63.8 63.6 47 43.1 0.0 0.0 --- 0.00 29.635
05/06/2006 12:50 a 63.7 63.7 63.7 63.7 63.6 48 43.7 0.0 0.0 --- 0.00 29.635
05/06/2006 1:00 a 63.5 63.5 63.5 63.6 63.4 49 44.0 0.0 0.0 --- 0.00 29.637
05/06/2006 1:10 a 63.1 63.1 63.1 63.4 63.0 48 43.1 0.0 1.0 WNW 0.00 29.636
05/06/2006 1:20 a 62.9 62.9 62.9 63.0 62.8 48 42.9 0.0 0.0 --- 0.00 29.634
05/06/2006 1:30 a 62.8 62.8 62.8 62.8 62.7 47 42.3 0.0 0.0 --- 0.00 29.633
05/06/2006 1:40 a 62.8 62.8 62.8 62.9 62.8 46 41.7 0.0 0.0 --- 0.00 29.631
05/06/2006 1:50 a 62.8 62.8 62.8 62.9 62.7 47 42.3 0.0 0.0 --- 0.00 29.630
05/06/2006 2:00 a 62.7 62.7 62.7 62.8 62.5 47 42.2 0.0 0.0 --- 0.00 29.626
05/06/2006 2:10 a 62.5 62.5 62.5 62.6 62.4 47 42.0 0.0 1.0 WNW 0.00 29.626
05/06/2006 2:20 a 62.3 62.3 62.3 62.4 62.1 49 42.9 0.0 0.0 --- 0.00 29.627
05/06/2006 2:30 a 62.0 62.0 62.0 62.2 61.8 48 42.1 0.0 0.0 --- 0.00 29.626
05/06/2006 2:40 a 61.7 61.7 61.7 61.8 61.6 49 42.4 0.0 0.0 --- 0.00 29.623
05/06/2006 2:50 a 61.5 61.5 61.5 61.6 61.4 50 42.7 0.0 0.0 --- 0.00 29.619
05/06/2006 3:00 a 61.3 61.3 61.3 61.4 61.2 51 43.0 0.0 0.0 --- 0.00 29.623
05/06/2006 3:10 a 61.0 61.0 61.0 61.2 60.8 51 42.8 0.0 0.0 --- 0.00 29.628
05/06/2006 3:20 a 60.7 60.7 60.7 60.8 60.5 53 43.5 0.0 0.0 --- 0.00 29.627
05/06/2006 3:30 a 60.3 60.3 60.3 60.5 60.2 53 43.1 0.0 0.0 --- 0.00 29.628
05/06/2006 3:40 a 60.0 60.0 60.0 60.2 59.8 53 42.8 0.0 0.0 --- 0.00 29.626
05/06/2006 3:50 a 59.7 59.7 59.7 59.8 59.4 53 42.6 0.0 0.0 --- 0.00 29.629
05/06/2006 4:00 a 59.2 59.2 59.2 59.4 58.9 55 43.1 0.0 0.0 --- 0.00 29.628
05/06/2006 4:10 a 58.6 58.6 58.6 58.9 58.4 56 43.0 0.0 0.0 --- 0.00 29.626
05/06/2006 4:20 a 58.3 58.3 58.3 58.4 58.1 56 42.7 0.0 0.0 --- 0.00 29.625
05/06/2006 4:30 a 57.9 57.9 57.9 58.1 57.8 56 42.3 0.0 0.0 --- 0.00 29.627
05/06/2006 4:40 a 57.6 57.6 57.6 57.8 57.4 55 41.6 0.0 0.0 --- 0.00 29.628
05/06/2006 4:50 a 57.3 57.3 57.3 57.4 57.2 55 41.3 0.0 0.0 --- 0.00 29.630
05/06/2006 5:00 a 57.1 57.1 57.1 57.2 56.9 56 41.6 0.0 0.0 --- 0.00 29.626
05/06/2006 5:10 a 56.7 56.7 56.7 57.0 56.4 57 41.7 0.0 0.0 --- 0.00 29.626
05/06/2006 5:20 a 56.2 56.2 56.2 56.5 56.0 58 41.6 0.0 0.0 --- 0.00 29.624
05/06/2006 5:30 a 55.6 55.6 55.6 56.0 55.2 63 43.2 0.0 0.0 --- 0.00 29.630
05/06/2006 5:40 a 55.0 55.0 55.0 55.2 54.8 64 43.1 0.0 0.0 --- 0.00 29.633
05/06/2006 5:50 a 54.7 54.7 54.7 54.8 54.5 68 44.4 0.0 0.0 --- 0.00 29.634
05/06/2006 6:00 a 54.5 54.5 54.5 54.7 54.4 65 43.0 0.0 0.0 --- 0.00 29.640
05/06/2006 6:10 a 54.8 54.8 54.8 55.0 54.6 66 43.7 0.0 0.0 --- 0.00 29.641
05/06/2006 6:20 a 54.0 54.0 54.0 54.6 53.5 66 42.9 0.0 0.0 --- 0.00 29.640
05/06/2006 6:30 a 53.5 53.5 53.5 53.7 53.3 69 43.6 0.0 0.0 --- 0.00 29.641
05/06/2006 6:40 a 53.9 53.9 53.9 54.1 53.7 69 44.0 0.0 0.0 --- 0.00 29.646
05/06/2006 6:50 a 54.0 54.0 54.0 54.1 53.9 69 44.1 0.0 0.0 --- 0.00 29.649
05/06/2006 7:00 a 53.9 53.9 53.9 53.9 53.8 67 43.2 0.0 0.0 --- 0.00 29.650
05/06/2006 7:10 a 54.0 54.0 54.0 54.2 53.9 65 42.5 0.0 0.0 --- 0.00 29.654
05/06/2006 7:20 a 54.6 54.6 54.6 55.0 54.2 62 41.9 0.0 0.0 --- 0.00 29.654
05/06/2006 7:30 a 55.5 55.5 55.5 56.0 55.0 60 41.9 0.0 1.0 --- 0.00 29.655
05/06/2006 7:40 a 56.4 56.4 56.4 56.9 56.0 59 42.3 0.0 0.0 --- 0.00 29.648
05/06/2006 7:50 a 57.4 57.4 57.4 58.0 56.9 57 42.3 0.0 1.0 WNW 0.00 29.644
05/06/2006 8:00 a 58.5 58.5 58.5 58.9 58.0 56 42.9 0.0 2.0 WNW 0.00 29.647
05/06/2006 8:10 a 59.3 59.3 59.3 59.7 58.9 53 42.2 0.0 3.0 ESE 0.00 29.653
05/06/2006 8:20 a 60.0 60.0 60.0 60.2 59.7 53 42.8 0.0 0.0 --- 0.00 29.657
05/06/2006 8:30 a 60.5 60.5 60.5 60.7 60.2 51 42.3 0.0 1.0 --- 0.00 29.660
05/06/2006 8:40 a 61.1 61.1 61.1 61.6 60.8 51 42.9 0.0 2.0 ESE 0.00 29.657
05/06/2006 8:50 a 62.0 62.0 62.0 62.4 61.6 51 43.7 0.0 1.0 ENE 0.00 29.655
05/06/2006 9:00 a 63.0 63.0 63.0 63.7 62.4 44 40.8 0.0 3.0 ENE 0.00 29.655
05/06/2006 9:10 a 64.3 64.3 64.3 64.8 63.7 44 41.9 0.0 3.0 NW 0.00 29.658
05/06/2006 9:20 a 65.1 65.1 65.1 65.2 64.8 44 42.7 0.0 2.0 NNE 0.00 29.656
05/06/2006 9:30 a 65.1 65.1 65.1 65.2 65.0 42 41.5 1.0 3.0 NW 0.00 29.655
05/06/2006 9:40 a 65.2 65.2 65.2 65.4 65.0 43 42.2 0.0 2.0 W 0.00 29.658
05/06/2006 9:50 a 65.4 65.4 65.4 65.5 65.3 39 39.8 0.0 3.0 WNW 0.00 29.657
05/06/2006 10:00 a 65.5 65.5 65.5 65.7 65.5 40 40.6 1.0 3.0 WNW 0.00 29.656
05/06/2006 10:10 a 66.0 66.0 66.0 66.2 65.7 38 39.7 1.0 3.0 WNW 0.00 29.655
05/06/2006 10:20 a 66.7 66.7 66.7 67.1 66.2 39 41.0 0.0 2.0 WNW 0.00 29.656
05/06/2006 10:30 a 67.6 67.6 67.6 67.9 67.1 38 41.1 0.0 2.0 WNW 0.00 29.656
05/06/2006 10:40 a 67.7 67.7 67.7 67.9 67.3 40 42.5 0.0 2.0 WNW 0.00 29.642
05/06/2006 10:50 a 67.6 67.6 67.6 68.0 67.3 36 39.7 1.0 4.0 WNW 0.00 29.642
05/06/2006 11:00 a 65.4 68.3 68.3 68.5 68.0 37 41.0 0.0 2.0 NW 0.00 29.644
05/06/2006 11:10 a 65.6 68.6 68.6 68.7 68.5 33 38.4 1.0 4.0 NW 0.00 29.645
05/06/2006 11:20 a 66.0 68.7 68.7 69.0 68.5 35 40.0 1.0 3.0 NNW 0.00 29.633
05/06/2006 11:30 a 65.6 69.1 69.1 69.1 69.0 33 38.8 1.0 4.0 NW 0.00 29.634
05/06/2006 11:40 a 66.2 69.3 69.3 69.5 69.0 36 41.2 1.0 3.0 NW 0.00 29.634
05/06/2006 11:50 a 65.8 69.4 69.4 69.5 69.4 34 39.8 0.0 3.0 WSW 0.00 29.634
05/06/2006 12:00 p 65.6 69.4 69.4 69.5 69.3 33 39.1 1.0 4.0 NW 0.00 29.631
05/06/2006 12:10 p 66.6 69.7 69.7 70.1 69.3 33 39.3 2.0 5.0 ENE 0.00 29.629
05/06/2006 12:20 p 66.6 70.4 70.4 70.7 70.1 33 40.0 1.0 5.0 E 0.00 29.626
05/06/2006 12:30 p 68.0 70.9 70.9 71.3 70.7 35 41.9 0.0 2.0 ENE 0.00 29.622
05/06/2006 12:40 p 69.3 71.8 71.8 72.4 71.3 33 41.2 0.0 1.0 ENE 0.00 29.620
05/06/2006 12:50 p 71.0 72.7 72.7 72.8 72.4 33 42.0 0.0 2.0 E 0.00 29.621
05/06/2006 1:00 p 71.0 73.1 73.1 73.4 72.8 32 41.5 0.0 4.0 E 0.00 29.618
05/06/2006 1:10 p 71.0 73.1 73.1 73.5 72.5 34 43.1 1.0 2.0 NW 0.00 29.612
05/06/2006 1:20 p 71.0 72.7 72.7 73.2 72.4 35 43.5 0.0 2.0 NW 0.00 29.610
05/06/2006 1:30 p 72.0 74.0 74.0 74.8 73.2 33 43.1 0.0 3.0 N 0.00 29.603
05/06/2006 1:40 p 73.0 75.3 75.3 75.8 74.8 33 44.2 0.0 2.0 N 0.00 29.604
05/06/2006 1:50 p 74.0 75.9 75.9 76.4 75.6 35 46.3 1.0 4.0 NW 0.00 29.601
05/06/2006 2:00 p 75.0 76.8 76.8 77.1 76.4 32 44.7 0.0 4.0 ENE 0.00 29.600
05/06/2006 2:10 p 75.0 77.0 77.0 77.1 76.8 33 45.7 0.0 3.0 SE 0.00 29.600
05/06/2006 2:20 p 74.0 76.1 76.1 76.8 75.4 34 45.7 0.0 2.0 S 0.00 29.601
05/06/2006 2:30 p 74.0 75.5 75.5 75.9 75.3 34 45.2 0.0 2.0 NW 0.00 29.598
05/06/2006 2:40 p 74.0 76.4 76.4 76.6 75.9 33 45.2 0.0 4.0 E 0.00 29.598
05/06/2006 2:50 p 75.0 76.6 76.6 76.7 76.6 33 45.4 1.0 5.0 E 0.00 29.604
05/06/2006 3:00 p 75.0 76.8 76.8 76.9 76.6 32 44.7 0.0 3.0 ENE 0.00 29.603
05/06/2006 3:10 p 75.0 76.7 76.7 76.8 76.6 32 44.7 1.0 5.0 E 0.00 29.606
05/06/2006 3:20 p 75.0 76.8 76.8 76.8 76.7 32 44.7 1.0 4.0 ENE 0.00 29.599
05/06/2006 3:30 p 75.0 76.8 76.8 76.9 76.7 31 43.9 1.0 5.0 ESE 0.00 29.602
05/06/2006 3:40 p 75.0 76.8 76.8 76.9 76.7 30 43.1 1.0 5.0 E 0.00 29.603
05/06/2006 3:50 p 75.0 76.8 76.8 76.9 76.7 30 43.1 1.0 5.0 E 0.00 29.600
05/06/2006 4:00 p 75.0 76.7 76.7 76.8 76.5 33 45.5 1.0 4.0 ESE 0.00 29.598
05/06/2006 4:10 p 75.0 76.6 76.6 76.8 76.6 32 44.6 1.0 5.0 W 0.00 29.593
05/06/2006 4:20 p 75.0 77.1 77.1 77.5 76.8 29 42.4 1.0 6.0 E 0.00 29.591
05/06/2006 4:30 p 75.0 77.4 77.4 77.5 77.3 28 41.8 0.0 3.0 ESE 0.00 29.597
05/06/2006 4:40 p 75.0 77.4 77.4 77.5 77.3 29 42.7 1.0 3.0 NNW 0.00 29.600
05/06/2006 4:50 p 75.0 77.3 77.3 77.5 77.1 30 43.5 1.0 4.0 W 0.00 29.607
05/06/2006 5:00 p 75.0 76.6 76.6 77.1 76.2 30 42.9 1.0 4.0 E 0.00 29.606
05/06/2006 5:10 p 74.0 75.8 75.8 76.2 75.3 33 44.7 1.0 5.0 E 0.00 29.612
05/06/2006 5:20 p 73.0 74.9 74.9 75.3 74.7 33 43.9 1.0 3.0 NE 0.00 29.617
05/06/2006 5:30 p 72.0 74.3 74.3 74.7 73.7 35 44.9 2.0 7.0 E 0.00 29.625
05/06/2006 5:40 p 71.0 73.2 73.2 73.7 72.8 38 46.1 2.0 7.0 ESE 0.00 29.628
05/06/2006 5:50 p 71.0 72.9 72.9 72.9 72.7 40 47.2 1.0 6.0 E 0.00 29.634
05/06/2006 6:00 p 69.9 72.3 72.3 72.8 71.8 39 46.0